<?xml version="1.0" encoding="UTF-8" standalone="no" ?>
<gpx xmlns="http://www.topografix.com/GPX/1/1" xmlns:xsi="http://www.w3.org/2001/XMLSchema-instance" xsi:schemaLocation="http://www.topografix.com/GPX/1/1 http://www.topografix.com/GPX/1/1/gpx.xsd" version="1.1" creator="VisuGPX - https://www.visugpx.com">
  <metadata>
    <name>Pic de Madamète</name>
    <desc><![CDATA[Jolie balade facile et panoramique. La descente par le lac Dets Coubous est intéressante.
Attention aux pentes terminales du Pic de Madamette qui peuvent ètre dures et gelées.]]></desc>
  </metadata>
  <trk>
    <name><![CDATA[Pic de Madamete]]></name>
    <desc><![CDATA[Pic de Madamete]]></desc>
    <trkseg>
      <trkpt lat="42.90328" lon="0.10215">
        <ele>1462.308472</ele>
        <time>2008-02-17T08:18:26.004Z</time>
      </trkpt>
      <trkpt lat="42.90328" lon="0.10217">
        <ele>1464.228638</ele>
        <time>2008-02-17T08:18:34.998Z</time>
      </trkpt>
      <trkpt lat="42.9032" lon="0.10237">
        <ele>1464.716431</ele>
        <time>2008-02-17T08:18:52.001Z</time>
      </trkpt>
      <trkpt lat="42.90313" lon="0.10256">
        <ele>1465.661255</ele>
        <time>2008-02-17T08:19:08.003Z</time>
      </trkpt>
      <trkpt lat="42.90306" lon="0.10277">
        <ele>1466.636597</ele>
        <time>2008-02-17T08:19:24.004Z</time>
      </trkpt>
      <trkpt lat="42.90298" lon="0.103">
        <ele>1469.501831</ele>
        <time>2008-02-17T08:19:39.003Z</time>
      </trkpt>
      <trkpt lat="42.90287" lon="0.10332">
        <ele>1472.397461</ele>
        <time>2008-02-17T08:19:58.002Z</time>
      </trkpt>
      <trkpt lat="42.9028" lon="0.10343">
        <ele>1473.372681</ele>
        <time>2008-02-17T08:20:13.001Z</time>
      </trkpt>
      <trkpt lat="42.90274" lon="0.10348">
        <ele>1473.829834</ele>
        <time>2008-02-17T08:20:47.000Z</time>
      </trkpt>
      <trkpt lat="42.90267" lon="0.1035">
        <ele>1473.829834</ele>
        <time>2008-02-17T08:20:53.998Z</time>
      </trkpt>
      <trkpt lat="42.90241" lon="0.10351">
        <ele>1473.829834</ele>
        <time>2008-02-17T08:21:09.999Z</time>
      </trkpt>
      <trkpt lat="42.90239" lon="0.10352">
        <ele>1474.317627</ele>
        <time>2008-02-17T08:21:23.996Z</time>
      </trkpt>
      <trkpt lat="42.90237" lon="0.1035">
        <ele>1471.421997</ele>
        <time>2008-02-17T08:21:46.996Z</time>
      </trkpt>
      <trkpt lat="42.90234" lon="0.10353">
        <ele>1471.421997</ele>
        <time>2008-02-17T08:21:50.003Z</time>
      </trkpt>
      <trkpt lat="42.90205" lon="0.10362">
        <ele>1476.237793</ele>
        <time>2008-02-17T08:22:09.002Z</time>
      </trkpt>
      <trkpt lat="42.90177" lon="0.10373">
        <ele>1478.645874</ele>
        <time>2008-02-17T08:22:29.997Z</time>
      </trkpt>
      <trkpt lat="42.90148" lon="0.10384">
        <ele>1481.541382</ele>
        <time>2008-02-17T08:22:51.001Z</time>
      </trkpt>
      <trkpt lat="42.90118" lon="0.10392">
        <ele>1484.406494</ele>
        <time>2008-02-17T08:23:11.996Z</time>
      </trkpt>
      <trkpt lat="42.90102" lon="0.10394">
        <ele>1486.32666</ele>
        <time>2008-02-17T08:23:26.002Z</time>
      </trkpt>
      <trkpt lat="42.90078" lon="0.10401">
        <ele>1489.709961</ele>
        <time>2008-02-17T08:23:46.003Z</time>
      </trkpt>
      <trkpt lat="42.90054" lon="0.10408">
        <ele>1492.11792</ele>
        <time>2008-02-17T08:24:05.003Z</time>
      </trkpt>
      <trkpt lat="42.90034" lon="0.10412">
        <ele>1494.038208</ele>
        <time>2008-02-17T08:24:23.000Z</time>
      </trkpt>
      <trkpt lat="42.90008" lon="0.10416">
        <ele>1495.958374</ele>
        <time>2008-02-17T08:24:43.001Z</time>
      </trkpt>
      <trkpt lat="42.89982" lon="0.10423">
        <ele>1497.87854</ele>
        <time>2008-02-17T08:25:00.998Z</time>
      </trkpt>
      <trkpt lat="42.89956" lon="0.10428">
        <ele>1498.823486</ele>
        <time>2008-02-17T08:25:19.004Z</time>
      </trkpt>
      <trkpt lat="42.89937" lon="0.10432">
        <ele>1499.79895</ele>
        <time>2008-02-17T08:25:35.999Z</time>
      </trkpt>
      <trkpt lat="42.89934" lon="0.10431">
        <ele>1499.311157</ele>
        <time>2008-02-17T08:25:53.996Z</time>
      </trkpt>
      <trkpt lat="42.89935" lon="0.10431">
        <ele>1499.311157</ele>
        <time>2008-02-17T08:26:11.000Z</time>
      </trkpt>
      <trkpt lat="42.89935" lon="0.10431">
        <ele>1499.311157</ele>
        <time>2008-02-17T08:26:20.996Z</time>
      </trkpt>
      <trkpt lat="42.89935" lon="0.10427">
        <ele>1496.415649</ele>
        <time>2008-02-17T08:26:38.000Z</time>
      </trkpt>
      <trkpt lat="42.89936" lon="0.10428">
        <ele>1498.366333</ele>
        <time>2008-02-17T08:26:55.997Z</time>
      </trkpt>
      <trkpt lat="42.89935" lon="0.10429">
        <ele>1498.823486</ele>
        <time>2008-02-17T08:27:37.002Z</time>
      </trkpt>
      <trkpt lat="42.8993" lon="0.10432">
        <ele>1500.286621</ele>
        <time>2008-02-17T08:28:23.002Z</time>
      </trkpt>
      <trkpt lat="42.89927" lon="0.10433">
        <ele>1500.286621</ele>
        <time>2008-02-17T08:28:27.002Z</time>
      </trkpt>
      <trkpt lat="42.89921" lon="0.10434">
        <ele>1500.286621</ele>
        <time>2008-02-17T08:28:31.996Z</time>
      </trkpt>
      <trkpt lat="42.89899" lon="0.10439">
        <ele>1501.719116</ele>
        <time>2008-02-17T08:28:50.002Z</time>
      </trkpt>
      <trkpt lat="42.89881" lon="0.10442">
        <ele>1505.071899</ele>
        <time>2008-02-17T08:29:07.999Z</time>
      </trkpt>
      <trkpt lat="42.89867" lon="0.10445">
        <ele>1507.479736</ele>
        <time>2008-02-17T08:29:25.002Z</time>
      </trkpt>
      <trkpt lat="42.89854" lon="0.10451">
        <ele>1510.863037</ele>
        <time>2008-02-17T08:29:41.004Z</time>
      </trkpt>
      <trkpt lat="42.89837" lon="0.10463">
        <ele>1510.863037</ele>
        <time>2008-02-17T08:29:57.998Z</time>
      </trkpt>
      <trkpt lat="42.8982" lon="0.10477">
        <ele>1511.320313</ele>
        <time>2008-02-17T08:30:16.004Z</time>
      </trkpt>
      <trkpt lat="42.89804" lon="0.10486">
        <ele>1513.240601</ele>
        <time>2008-02-17T08:30:31.997Z</time>
      </trkpt>
      <trkpt lat="42.89789" lon="0.10491">
        <ele>1515.160767</ele>
        <time>2008-02-17T08:30:46.002Z</time>
      </trkpt>
      <trkpt lat="42.89771" lon="0.10497">
        <ele>1517.11145</ele>
        <time>2008-02-17T08:31:02.997Z</time>
      </trkpt>
      <trkpt lat="42.89755" lon="0.10501">
        <ele>1518.056396</ele>
        <time>2008-02-17T08:31:20.001Z</time>
      </trkpt>
      <trkpt lat="42.8974" lon="0.10502">
        <ele>1519.489014</ele>
        <time>2008-02-17T08:31:36.002Z</time>
      </trkpt>
      <trkpt lat="42.89721" lon="0.10505">
        <ele>1521.896851</ele>
        <time>2008-02-17T08:31:52.997Z</time>
      </trkpt>
      <trkpt lat="42.89709" lon="0.10506">
        <ele>1522.384644</ele>
        <time>2008-02-17T08:32:07.996Z</time>
      </trkpt>
      <trkpt lat="42.89696" lon="0.10505">
        <ele>1527.200439</ele>
        <time>2008-02-17T08:32:23.004Z</time>
      </trkpt>
      <trkpt lat="42.89674" lon="0.10503">
        <ele>1530.06543</ele>
        <time>2008-02-17T08:32:42.996Z</time>
      </trkpt>
      <trkpt lat="42.89671" lon="0.10503">
        <ele>1530.553223</ele>
        <time>2008-02-17T08:32:46.003Z</time>
      </trkpt>
      <trkpt lat="42.89654" lon="0.10497">
        <ele>1534.393677</ele>
        <time>2008-02-17T08:33:05.996Z</time>
      </trkpt>
      <trkpt lat="42.89637" lon="0.1049">
        <ele>1538.234253</ele>
        <time>2008-02-17T08:33:25.004Z</time>
      </trkpt>
      <trkpt lat="42.89622" lon="0.10482">
        <ele>1538.721802</ele>
        <time>2008-02-17T08:33:41.999Z</time>
      </trkpt>
      <trkpt lat="42.89604" lon="0.10475">
        <ele>1539.697144</ele>
        <time>2008-02-17T08:33:59.996Z</time>
      </trkpt>
      <trkpt lat="42.89587" lon="0.10472">
        <ele>1544.970215</ele>
        <time>2008-02-17T08:34:17.000Z</time>
      </trkpt>
      <trkpt lat="42.89572" lon="0.10462">
        <ele>1545.945557</ele>
        <time>2008-02-17T08:34:34.003Z</time>
      </trkpt>
      <trkpt lat="42.89566" lon="0.10459">
        <ele>1547.378174</ele>
        <time>2008-02-17T08:34:53.003Z</time>
      </trkpt>
      <trkpt lat="42.89559" lon="0.10456">
        <ele>1546.890503</ele>
        <time>2008-02-17T08:35:08.002Z</time>
      </trkpt>
      <trkpt lat="42.89559" lon="0.10457">
        <ele>1547.378174</ele>
        <time>2008-02-17T08:35:24.996Z</time>
      </trkpt>
      <trkpt lat="42.89557" lon="0.10459">
        <ele>1540.64209</ele>
        <time>2008-02-17T08:35:43.002Z</time>
      </trkpt>
      <trkpt lat="42.89554" lon="0.10462">
        <ele>1540.64209</ele>
        <time>2008-02-17T08:35:51.003Z</time>
      </trkpt>
      <trkpt lat="42.89544" lon="0.10491">
        <ele>1546.890503</ele>
        <time>2008-02-17T08:36:14.003Z</time>
      </trkpt>
      <trkpt lat="42.89539" lon="0.10513">
        <ele>1548.810669</ele>
        <time>2008-02-17T08:36:34.998Z</time>
      </trkpt>
      <trkpt lat="42.89535" lon="0.10526">
        <ele>1551.218628</ele>
        <time>2008-02-17T08:36:48.001Z</time>
      </trkpt>
      <trkpt lat="42.89525" lon="0.1055">
        <ele>1553.138916</ele>
        <time>2008-02-17T08:37:05.998Z</time>
      </trkpt>
      <trkpt lat="42.8952" lon="0.10561">
        <ele>1553.138916</ele>
        <time>2008-02-17T08:37:15.001Z</time>
      </trkpt>
      <trkpt lat="42.89517" lon="0.10584">
        <ele>1555.059082</ele>
        <time>2008-02-17T08:37:31.996Z</time>
      </trkpt>
      <trkpt lat="42.89513" lon="0.10595">
        <ele>1558.442383</ele>
        <time>2008-02-17T08:37:42.001Z</time>
      </trkpt>
      <trkpt lat="42.89502" lon="0.10609">
        <ele>1563.227783</ele>
        <time>2008-02-17T08:37:58.996Z</time>
      </trkpt>
      <trkpt lat="42.89495" lon="0.10609">
        <ele>1560.850342</ele>
        <time>2008-02-17T08:38:14.997Z</time>
      </trkpt>
      <trkpt lat="42.89486" lon="0.106">
        <ele>1559.875</ele>
        <time>2008-02-17T08:38:28.000Z</time>
      </trkpt>
      <trkpt lat="42.89473" lon="0.10594">
        <ele>1563.227783</ele>
        <time>2008-02-17T08:38:45.004Z</time>
      </trkpt>
      <trkpt lat="42.89461" lon="0.10603">
        <ele>1567.555908</ele>
        <time>2008-02-17T08:39:03.001Z</time>
      </trkpt>
      <trkpt lat="42.89457" lon="0.10604">
        <ele>1571.884155</ele>
        <time>2008-02-17T08:39:24.998Z</time>
      </trkpt>
      <trkpt lat="42.89454" lon="0.10605">
        <ele>1572.859375</ele>
        <time>2008-02-17T08:39:55.999Z</time>
      </trkpt>
      <trkpt lat="42.89439" lon="0.10604">
        <ele>1572.859375</ele>
        <time>2008-02-17T08:40:10.998Z</time>
      </trkpt>
      <trkpt lat="42.89432" lon="0.10606">
        <ele>1574.291992</ele>
        <time>2008-02-17T08:40:25.997Z</time>
      </trkpt>
      <trkpt lat="42.89432" lon="0.10607">
        <ele>1575.724609</ele>
        <time>2008-02-17T08:40:44.003Z</time>
      </trkpt>
      <trkpt lat="42.89432" lon="0.10605">
        <ele>1572.859375</ele>
        <time>2008-02-17T08:41:15.003Z</time>
      </trkpt>
      <trkpt lat="42.89432" lon="0.10604">
        <ele>1571.42688</ele>
        <time>2008-02-17T08:41:39.998Z</time>
      </trkpt>
      <trkpt lat="42.89432" lon="0.10602">
        <ele>1572.859375</ele>
        <time>2008-02-17T08:42:21.004Z</time>
      </trkpt>
      <trkpt lat="42.89425" lon="0.10614">
        <ele>1580.540405</ele>
        <time>2008-02-17T08:42:47.002Z</time>
      </trkpt>
      <trkpt lat="42.89421" lon="0.10619">
        <ele>1577.675293</ele>
        <time>2008-02-17T08:43:03.003Z</time>
      </trkpt>
      <trkpt lat="42.8942" lon="0.1062">
        <ele>1577.675293</ele>
        <time>2008-02-17T08:43:03.996Z</time>
      </trkpt>
      <trkpt lat="42.89415" lon="0.10635">
        <ele>1580.540405</ele>
        <time>2008-02-17T08:43:19.998Z</time>
      </trkpt>
      <trkpt lat="42.89414" lon="0.10641">
        <ele>1582.948242</ele>
        <time>2008-02-17T08:43:27.998Z</time>
      </trkpt>
      <trkpt lat="42.89405" lon="0.10652">
        <ele>1585.843872</ele>
        <time>2008-02-17T08:43:42.997Z</time>
      </trkpt>
      <trkpt lat="42.89398" lon="0.10661">
        <ele>1587.76416</ele>
        <time>2008-02-17T08:43:57.003Z</time>
      </trkpt>
      <trkpt lat="42.89393" lon="0.10661">
        <ele>1588.708984</ele>
        <time>2008-02-17T08:44:09.004Z</time>
      </trkpt>
      <trkpt lat="42.89385" lon="0.10666">
        <ele>1591.117065</ele>
        <time>2008-02-17T08:44:25.999Z</time>
      </trkpt>
      <trkpt lat="42.89379" lon="0.10667">
        <ele>1592.549438</ele>
        <time>2008-02-17T08:44:40.998Z</time>
      </trkpt>
      <trkpt lat="42.89363" lon="0.10663">
        <ele>1596.877686</ele>
        <time>2008-02-17T08:44:59.997Z</time>
      </trkpt>
      <trkpt lat="42.89349" lon="0.10662">
        <ele>1600.718262</ele>
        <time>2008-02-17T08:45:18.003Z</time>
      </trkpt>
      <trkpt lat="42.89338" lon="0.10661">
        <ele>1602.668945</ele>
        <time>2008-02-17T08:45:34.998Z</time>
      </trkpt>
      <trkpt lat="42.89329" lon="0.10666">
        <ele>1604.589111</ele>
        <time>2008-02-17T08:45:49.997Z</time>
      </trkpt>
      <trkpt lat="42.89319" lon="0.10669">
        <ele>1607.454224</ele>
        <time>2008-02-17T08:46:05.998Z</time>
      </trkpt>
      <trkpt lat="42.89309" lon="0.10669">
        <ele>1607.941895</ele>
        <time>2008-02-17T08:46:19.001Z</time>
      </trkpt>
      <trkpt lat="42.893" lon="0.10674">
        <ele>1610.349731</ele>
        <time>2008-02-17T08:46:35.003Z</time>
      </trkpt>
      <trkpt lat="42.89291" lon="0.10679">
        <ele>1613.214966</ele>
        <time>2008-02-17T08:46:50.002Z</time>
      </trkpt>
      <trkpt lat="42.89279" lon="0.10681">
        <ele>1615.622925</ele>
        <time>2008-02-17T08:47:09.001Z</time>
      </trkpt>
      <trkpt lat="42.8927" lon="0.10681">
        <ele>1619.463379</ele>
        <time>2008-02-17T08:47:25.002Z</time>
      </trkpt>
      <trkpt lat="42.89258" lon="0.10682">
        <ele>1622.359009</ele>
        <time>2008-02-17T08:47:42.999Z</time>
      </trkpt>
      <trkpt lat="42.89249" lon="0.10686">
        <ele>1624.766968</ele>
        <time>2008-02-17T08:47:56.996Z</time>
      </trkpt>
      <trkpt lat="42.89236" lon="0.1069">
        <ele>1626.199341</ele>
        <time>2008-02-17T08:48:15.002Z</time>
      </trkpt>
      <trkpt lat="42.89227" lon="0.10694">
        <ele>1627.174805</ele>
        <time>2008-02-17T08:48:28.999Z</time>
      </trkpt>
      <trkpt lat="42.89217" lon="0.10695">
        <ele>1629.582642</ele>
        <time>2008-02-17T08:48:45.000Z</time>
      </trkpt>
      <trkpt lat="42.89207" lon="0.10697">
        <ele>1631.503052</ele>
        <time>2008-02-17T08:49:01.001Z</time>
      </trkpt>
      <trkpt lat="42.89191" lon="0.10696">
        <ele>1633.423218</ele>
        <time>2008-02-17T08:49:20.001Z</time>
      </trkpt>
      <trkpt lat="42.8918" lon="0.10693">
        <ele>1637.263672</ele>
        <time>2008-02-17T08:49:37.998Z</time>
      </trkpt>
      <trkpt lat="42.89169" lon="0.10695">
        <ele>1639.671631</ele>
        <time>2008-02-17T08:49:52.997Z</time>
      </trkpt>
      <trkpt lat="42.89162" lon="0.107">
        <ele>1642.536743</ele>
        <time>2008-02-17T08:50:06.000Z</time>
      </trkpt>
      <trkpt lat="42.89149" lon="0.10703">
        <ele>1646.407715</ele>
        <time>2008-02-17T08:50:19.997Z</time>
      </trkpt>
      <trkpt lat="42.89138" lon="0.1071">
        <ele>1649.760498</ele>
        <time>2008-02-17T08:50:34.996Z</time>
      </trkpt>
      <trkpt lat="42.89127" lon="0.10713">
        <ele>1649.760498</ele>
        <time>2008-02-17T08:50:49.001Z</time>
      </trkpt>
      <trkpt lat="42.89119" lon="0.10722">
        <ele>1651.192993</ele>
        <time>2008-02-17T08:51:05.003Z</time>
      </trkpt>
      <trkpt lat="42.89116" lon="0.10725">
        <ele>1649.760498</ele>
        <time>2008-02-17T08:51:18.999Z</time>
      </trkpt>
      <trkpt lat="42.8911" lon="0.10727">
        <ele>1654.088623</ele>
        <time>2008-02-17T08:51:25.998Z</time>
      </trkpt>
      <trkpt lat="42.89103" lon="0.10725">
        <ele>1655.52124</ele>
        <time>2008-02-17T08:51:32.996Z</time>
      </trkpt>
      <trkpt lat="42.89087" lon="0.10723">
        <ele>1661.28186</ele>
        <time>2008-02-17T08:51:51.002Z</time>
      </trkpt>
      <trkpt lat="42.89075" lon="0.10724">
        <ele>1659.361694</ele>
        <time>2008-02-17T08:52:03.996Z</time>
      </trkpt>
      <trkpt lat="42.89061" lon="0.10737">
        <ele>1659.849365</ele>
        <time>2008-02-17T08:52:19.998Z</time>
      </trkpt>
      <trkpt lat="42.89046" lon="0.10746">
        <ele>1661.769653</ele>
        <time>2008-02-17T08:52:37.001Z</time>
      </trkpt>
      <trkpt lat="42.8903" lon="0.10749">
        <ele>1664.17749</ele>
        <time>2008-02-17T08:52:53.996Z</time>
      </trkpt>
      <trkpt lat="42.89015" lon="0.1075">
        <ele>1666.097778</ele>
        <time>2008-02-17T08:53:09.997Z</time>
      </trkpt>
      <trkpt lat="42.89012" lon="0.10751">
        <ele>1666.585327</ele>
        <time>2008-02-17T08:53:13.004Z</time>
      </trkpt>
      <trkpt lat="42.88997" lon="0.10751">
        <ele>1669.480957</ele>
        <time>2008-02-17T08:53:31.001Z</time>
      </trkpt>
      <trkpt lat="42.88982" lon="0.10748">
        <ele>1671.401367</ele>
        <time>2008-02-17T08:53:47.003Z</time>
      </trkpt>
      <trkpt lat="42.8897" lon="0.10746">
        <ele>1672.346191</ele>
        <time>2008-02-17T08:53:55.997Z</time>
      </trkpt>
      <trkpt lat="42.88958" lon="0.10744">
        <ele>1669.480957</ele>
        <time>2008-02-17T08:54:11.998Z</time>
      </trkpt>
      <trkpt lat="42.88949" lon="0.10746">
        <ele>1669.480957</ele>
        <time>2008-02-17T08:54:26.004Z</time>
      </trkpt>
      <trkpt lat="42.88926" lon="0.10759">
        <ele>1674.266357</ele>
        <time>2008-02-17T08:54:46.999Z</time>
      </trkpt>
      <trkpt lat="42.88914" lon="0.10767">
        <ele>1674.266357</ele>
        <time>2008-02-17T08:54:59.000Z</time>
      </trkpt>
      <trkpt lat="42.88897" lon="0.10785">
        <ele>1675.241821</ele>
        <time>2008-02-17T08:55:16.003Z</time>
      </trkpt>
      <trkpt lat="42.8888" lon="0.10794">
        <ele>1680.514771</ele>
        <time>2008-02-17T08:55:34.000Z</time>
      </trkpt>
      <trkpt lat="42.88866" lon="0.10797">
        <ele>1681.002563</ele>
        <time>2008-02-17T08:55:48.999Z</time>
      </trkpt>
      <trkpt lat="42.88846" lon="0.10804">
        <ele>1683.898071</ele>
        <time>2008-02-17T08:56:09.001Z</time>
      </trkpt>
      <trkpt lat="42.88825" lon="0.10814">
        <ele>1683.4104</ele>
        <time>2008-02-17T08:56:30.998Z</time>
      </trkpt>
      <trkpt lat="42.88805" lon="0.10821">
        <ele>1685.330566</ele>
        <time>2008-02-17T08:56:52.002Z</time>
      </trkpt>
      <trkpt lat="42.88791" lon="0.10827">
        <ele>1689.171143</ele>
        <time>2008-02-17T08:57:07.001Z</time>
      </trkpt>
      <trkpt lat="42.88778" lon="0.10832">
        <ele>1691.578979</ele>
        <time>2008-02-17T08:57:22.000Z</time>
      </trkpt>
      <trkpt lat="42.88762" lon="0.10835">
        <ele>1693.499268</ele>
        <time>2008-02-17T08:57:39.004Z</time>
      </trkpt>
      <trkpt lat="42.88746" lon="0.10836">
        <ele>1695.419434</ele>
        <time>2008-02-17T08:57:54.996Z</time>
      </trkpt>
      <trkpt lat="42.88733" lon="0.10836">
        <ele>1698.315063</ele>
        <time>2008-02-17T08:58:12.000Z</time>
      </trkpt>
      <trkpt lat="42.88726" lon="0.10838">
        <ele>1698.315063</ele>
        <time>2008-02-17T08:58:22.999Z</time>
      </trkpt>
      <trkpt lat="42.88714" lon="0.10835">
        <ele>1698.315063</ele>
        <time>2008-02-17T08:58:37.998Z</time>
      </trkpt>
      <trkpt lat="42.88704" lon="0.10835">
        <ele>1698.315063</ele>
        <time>2008-02-17T08:58:55.001Z</time>
      </trkpt>
      <trkpt lat="42.88697" lon="0.10836">
        <ele>1698.772339</ele>
        <time>2008-02-17T08:59:04.004Z</time>
      </trkpt>
      <trkpt lat="42.88689" lon="0.10839">
        <ele>1701.180176</ele>
        <time>2008-02-17T08:59:15.003Z</time>
      </trkpt>
      <trkpt lat="42.88674" lon="0.10842">
        <ele>1705.02063</ele>
        <time>2008-02-17T08:59:31.998Z</time>
      </trkpt>
      <trkpt lat="42.88668" lon="0.1085">
        <ele>1707.428589</ele>
        <time>2008-02-17T08:59:45.001Z</time>
      </trkpt>
      <trkpt lat="42.88663" lon="0.10849">
        <ele>1705.508423</ele>
        <time>2008-02-17T08:59:56.000Z</time>
      </trkpt>
      <trkpt lat="42.88655" lon="0.10849">
        <ele>1705.996094</ele>
        <time>2008-02-17T09:00:09.003Z</time>
      </trkpt>
      <trkpt lat="42.88646" lon="0.10853">
        <ele>1709.348877</ele>
        <time>2008-02-17T09:00:21.004Z</time>
      </trkpt>
      <trkpt lat="42.88637" lon="0.10858">
        <ele>1711.756836</ele>
        <time>2008-02-17T09:00:36.003Z</time>
      </trkpt>
      <trkpt lat="42.88633" lon="0.10863">
        <ele>1714.164673</ele>
        <time>2008-02-17T09:00:45.999Z</time>
      </trkpt>
      <trkpt lat="42.88629" lon="0.10868">
        <ele>1715.140137</ele>
        <time>2008-02-17T09:00:56.998Z</time>
      </trkpt>
      <trkpt lat="42.88623" lon="0.10871">
        <ele>1716.572632</ele>
        <time>2008-02-17T09:01:07.003Z</time>
      </trkpt>
      <trkpt lat="42.88622" lon="0.10873">
        <ele>1718.49292</ele>
        <time>2008-02-17T09:01:18.002Z</time>
      </trkpt>
      <trkpt lat="42.88614" lon="0.1088">
        <ele>1718.980591</ele>
        <time>2008-02-17T09:01:31.999Z</time>
      </trkpt>
      <trkpt lat="42.88607" lon="0.10882">
        <ele>1719.925415</ele>
        <time>2008-02-17T09:01:45.002Z</time>
      </trkpt>
      <trkpt lat="42.88597" lon="0.1089">
        <ele>1723.308716</ele>
        <time>2008-02-17T09:01:58.999Z</time>
      </trkpt>
      <trkpt lat="42.88588" lon="0.10902">
        <ele>1725.716553</ele>
        <time>2008-02-17T09:02:16.002Z</time>
      </trkpt>
      <trkpt lat="42.88581" lon="0.1091">
        <ele>1726.173828</ele>
        <time>2008-02-17T09:02:29.999Z</time>
      </trkpt>
      <trkpt lat="42.88577" lon="0.10918">
        <ele>1728.094116</ele>
        <time>2008-02-17T09:02:42.000Z</time>
      </trkpt>
      <trkpt lat="42.88575" lon="0.10919">
        <ele>1728.094116</ele>
        <time>2008-02-17T09:02:44.998Z</time>
      </trkpt>
      <trkpt lat="42.88574" lon="0.10921">
        <ele>1728.094116</ele>
        <time>2008-02-17T09:02:47.003Z</time>
      </trkpt>
      <trkpt lat="42.88561" lon="0.10932">
        <ele>1727.636963</ele>
        <time>2008-02-17T09:03:03.004Z</time>
      </trkpt>
      <trkpt lat="42.88549" lon="0.10944">
        <ele>1729.557129</ele>
        <time>2008-02-17T09:03:18.996Z</time>
      </trkpt>
      <trkpt lat="42.88538" lon="0.10959">
        <ele>1731.964966</ele>
        <time>2008-02-17T09:03:36.000Z</time>
      </trkpt>
      <trkpt lat="42.88528" lon="0.10971">
        <ele>1734.8302</ele>
        <time>2008-02-17T09:03:50.999Z</time>
      </trkpt>
      <trkpt lat="42.88515" lon="0.10985">
        <ele>1737.72583</ele>
        <time>2008-02-17T09:04:08.003Z</time>
      </trkpt>
      <trkpt lat="42.88504" lon="0.11">
        <ele>1739.645996</ele>
        <time>2008-02-17T09:04:24.997Z</time>
      </trkpt>
      <trkpt lat="42.88501" lon="0.11003">
        <ele>1739.645996</ele>
        <time>2008-02-17T09:04:28.998Z</time>
      </trkpt>
      <trkpt lat="42.88499" lon="0.11008">
        <ele>1740.133667</ele>
        <time>2008-02-17T09:04:32.998Z</time>
      </trkpt>
      <trkpt lat="42.88486" lon="0.11017">
        <ele>1741.566162</ele>
        <time>2008-02-17T09:04:48.999Z</time>
      </trkpt>
      <trkpt lat="42.88474" lon="0.11026">
        <ele>1742.541626</ele>
        <time>2008-02-17T09:05:03.998Z</time>
      </trkpt>
      <trkpt lat="42.88472" lon="0.11027">
        <ele>1742.998779</ele>
        <time>2008-02-17T09:05:06.996Z</time>
      </trkpt>
      <trkpt lat="42.88468" lon="0.11029">
        <ele>1742.998779</ele>
        <time>2008-02-17T09:05:10.997Z</time>
      </trkpt>
      <trkpt lat="42.88453" lon="0.1105">
        <ele>1743.48645</ele>
        <time>2008-02-17T09:05:32.001Z</time>
      </trkpt>
      <trkpt lat="42.88442" lon="0.11064">
        <ele>1744.461792</ele>
        <time>2008-02-17T09:05:51.000Z</time>
      </trkpt>
      <trkpt lat="42.88438" lon="0.11071">
        <ele>1744.918945</ele>
        <time>2008-02-17T09:06:12.997Z</time>
      </trkpt>
      <trkpt lat="42.8843" lon="0.11085">
        <ele>1744.461792</ele>
        <time>2008-02-17T09:06:26.001Z</time>
      </trkpt>
      <trkpt lat="42.88424" lon="0.11093">
        <ele>1744.461792</ele>
        <time>2008-02-17T09:06:35.004Z</time>
      </trkpt>
      <trkpt lat="42.88416" lon="0.11107">
        <ele>1745.406738</ele>
        <time>2008-02-17T09:06:47.998Z</time>
      </trkpt>
      <trkpt lat="42.88413" lon="0.11108">
        <ele>1745.406738</ele>
        <time>2008-02-17T09:06:50.996Z</time>
      </trkpt>
      <trkpt lat="42.8841" lon="0.11111">
        <ele>1745.406738</ele>
        <time>2008-02-17T09:06:54.003Z</time>
      </trkpt>
      <trkpt lat="42.88398" lon="0.11129">
        <ele>1746.839355</ele>
        <time>2008-02-17T09:07:12.000Z</time>
      </trkpt>
      <trkpt lat="42.88384" lon="0.1115">
        <ele>1747.327026</ele>
        <time>2008-02-17T09:07:30.999Z</time>
      </trkpt>
      <trkpt lat="42.88376" lon="0.11161">
        <ele>1748.302246</ele>
        <time>2008-02-17T09:07:43.000Z</time>
      </trkpt>
      <trkpt lat="42.88372" lon="0.1116">
        <ele>1747.814575</ele>
        <time>2008-02-17T09:07:47.001Z</time>
      </trkpt>
      <trkpt lat="42.88353" lon="0.11159">
        <ele>1750.710205</ele>
        <time>2008-02-17T09:08:06.000Z</time>
      </trkpt>
      <trkpt lat="42.88334" lon="0.11168">
        <ele>1752.142822</ele>
        <time>2008-02-17T09:08:27.004Z</time>
      </trkpt>
      <trkpt lat="42.88322" lon="0.11187">
        <ele>1754.550659</ele>
        <time>2008-02-17T09:08:46.997Z</time>
      </trkpt>
      <trkpt lat="42.88317" lon="0.11199">
        <ele>1755.983276</ele>
        <time>2008-02-17T09:09:02.998Z</time>
      </trkpt>
      <trkpt lat="42.88318" lon="0.11205">
        <ele>1756.471069</ele>
        <time>2008-02-17T09:09:20.002Z</time>
      </trkpt>
      <trkpt lat="42.88317" lon="0.11204">
        <ele>1756.471069</ele>
        <time>2008-02-17T09:09:44.004Z</time>
      </trkpt>
      <trkpt lat="42.88317" lon="0.11204">
        <ele>1755.983276</ele>
        <time>2008-02-17T09:10:33.001Z</time>
      </trkpt>
      <trkpt lat="42.88316" lon="0.11209">
        <ele>1765.127319</ele>
        <time>2008-02-17T09:11:42.000Z</time>
      </trkpt>
      <trkpt lat="42.88315" lon="0.11208">
        <ele>1762.231689</ele>
        <time>2008-02-17T09:11:58.001Z</time>
      </trkpt>
      <trkpt lat="42.88313" lon="0.11206">
        <ele>1759.823853</ele>
        <time>2008-02-17T09:12:22.997Z</time>
      </trkpt>
      <trkpt lat="42.88315" lon="0.11206">
        <ele>1757.903442</ele>
        <time>2008-02-17T09:13:12.003Z</time>
      </trkpt>
      <trkpt lat="42.88316" lon="0.11205">
        <ele>1757.903442</ele>
        <time>2008-02-17T09:13:28.004Z</time>
      </trkpt>
      <trkpt lat="42.88313" lon="0.11204">
        <ele>1757.903442</ele>
        <time>2008-02-17T09:13:31.002Z</time>
      </trkpt>
      <trkpt lat="42.88305" lon="0.11204">
        <ele>1758.878906</ele>
        <time>2008-02-17T09:13:40.999Z</time>
      </trkpt>
      <trkpt lat="42.88293" lon="0.11217">
        <ele>1760.311401</ele>
        <time>2008-02-17T09:13:58.996Z</time>
      </trkpt>
      <trkpt lat="42.88287" lon="0.1122">
        <ele>1760.311401</ele>
        <time>2008-02-17T09:14:06.003Z</time>
      </trkpt>
      <trkpt lat="42.88275" lon="0.11221">
        <ele>1762.231689</ele>
        <time>2008-02-17T09:14:21.002Z</time>
      </trkpt>
      <trkpt lat="42.88265" lon="0.11218">
        <ele>1766.072266</ele>
        <time>2008-02-17T09:14:37.997Z</time>
      </trkpt>
      <trkpt lat="42.88252" lon="0.11218">
        <ele>1770.887939</ele>
        <time>2008-02-17T09:14:56.003Z</time>
      </trkpt>
      <trkpt lat="42.88243" lon="0.11227">
        <ele>1771.832886</ele>
        <time>2008-02-17T09:15:12.004Z</time>
      </trkpt>
      <trkpt lat="42.88229" lon="0.11234">
        <ele>1777.624146</ele>
        <time>2008-02-17T09:15:31.997Z</time>
      </trkpt>
      <trkpt lat="42.88219" lon="0.11226">
        <ele>1780.489258</ele>
        <time>2008-02-17T09:15:47.998Z</time>
      </trkpt>
      <trkpt lat="42.88212" lon="0.11219">
        <ele>1781.952148</ele>
        <time>2008-02-17T09:15:59.999Z</time>
      </trkpt>
      <trkpt lat="42.88206" lon="0.11219">
        <ele>1781.952148</ele>
        <time>2008-02-17T09:16:13.996Z</time>
      </trkpt>
      <trkpt lat="42.88198" lon="0.11213">
        <ele>1782.409424</ele>
        <time>2008-02-17T09:16:29.004Z</time>
      </trkpt>
      <trkpt lat="42.88189" lon="0.11206">
        <ele>1785.792725</ele>
        <time>2008-02-17T09:16:45.998Z</time>
      </trkpt>
      <trkpt lat="42.88187" lon="0.11203">
        <ele>1786.280396</ele>
        <time>2008-02-17T09:16:49.999Z</time>
      </trkpt>
      <trkpt lat="42.88186" lon="0.112">
        <ele>1786.737549</ele>
        <time>2008-02-17T09:16:52.003Z</time>
      </trkpt>
      <trkpt lat="42.88187" lon="0.11188">
        <ele>1789.633179</ele>
        <time>2008-02-17T09:17:04.998Z</time>
      </trkpt>
      <trkpt lat="42.88187" lon="0.11175">
        <ele>1792.041138</ele>
        <time>2008-02-17T09:17:19.003Z</time>
      </trkpt>
      <trkpt lat="42.8819" lon="0.11157">
        <ele>1793.473755</ele>
        <time>2008-02-17T09:17:34.996Z</time>
      </trkpt>
      <trkpt lat="42.88192" lon="0.11147">
        <ele>1795.393921</ele>
        <time>2008-02-17T09:17:49.001Z</time>
      </trkpt>
      <trkpt lat="42.88193" lon="0.11138">
        <ele>1797.801758</ele>
        <time>2008-02-17T09:18:01.002Z</time>
      </trkpt>
      <trkpt lat="42.88194" lon="0.11129">
        <ele>1800.697388</ele>
        <time>2008-02-17T09:18:12.001Z</time>
      </trkpt>
      <trkpt lat="42.88195" lon="0.11119">
        <ele>1802.617676</ele>
        <time>2008-02-17T09:18:24.002Z</time>
      </trkpt>
      <trkpt lat="42.88196" lon="0.11109">
        <ele>1803.562622</ele>
        <time>2008-02-17T09:18:37.999Z</time>
      </trkpt>
      <trkpt lat="42.88195" lon="0.11092">
        <ele>1802.130005</ele>
        <time>2008-02-17T09:19:11.004Z</time>
      </trkpt>
      <trkpt lat="42.88193" lon="0.11085">
        <ele>1804.050171</ele>
        <time>2008-02-17T09:19:22.002Z</time>
      </trkpt>
      <trkpt lat="42.88188" lon="0.11092">
        <ele>1805.482788</ele>
        <time>2008-02-17T09:19:38.004Z</time>
      </trkpt>
      <trkpt lat="42.88186" lon="0.11088">
        <ele>1806.945801</ele>
        <time>2008-02-17T09:19:50.998Z</time>
      </trkpt>
      <trkpt lat="42.88184" lon="0.11081">
        <ele>1809.811035</ele>
        <time>2008-02-17T09:20:05.997Z</time>
      </trkpt>
      <trkpt lat="42.88184" lon="0.1108">
        <ele>1809.811035</ele>
        <time>2008-02-17T09:20:06.999Z</time>
      </trkpt>
      <trkpt lat="42.88183" lon="0.1107">
        <ele>1812.706665</ele>
        <time>2008-02-17T09:20:19.000Z</time>
      </trkpt>
      <trkpt lat="42.88183" lon="0.11065">
        <ele>1814.139038</ele>
        <time>2008-02-17T09:20:32.997Z</time>
      </trkpt>
      <trkpt lat="42.88182" lon="0.11063">
        <ele>1816.059448</ele>
        <time>2008-02-17T09:22:11.001Z</time>
      </trkpt>
      <trkpt lat="42.88182" lon="0.11061">
        <ele>1814.139038</ele>
        <time>2008-02-17T09:22:58.996Z</time>
      </trkpt>
      <trkpt lat="42.88184" lon="0.11054">
        <ele>1822.307861</ele>
        <time>2008-02-17T09:23:37.003Z</time>
      </trkpt>
      <trkpt lat="42.88186" lon="0.11046">
        <ele>1824.715698</ele>
        <time>2008-02-17T09:23:48.002Z</time>
      </trkpt>
      <trkpt lat="42.88192" lon="0.11029">
        <ele>1827.123657</ele>
        <time>2008-02-17T09:24:04.003Z</time>
      </trkpt>
      <trkpt lat="42.88195" lon="0.11021">
        <ele>1828.098999</ele>
        <time>2008-02-17T09:24:12.997Z</time>
      </trkpt>
      <trkpt lat="42.88199" lon="0.1101">
        <ele>1830.019165</ele>
        <time>2008-02-17T09:24:27.003Z</time>
      </trkpt>
      <trkpt lat="42.88202" lon="0.10998">
        <ele>1831.451782</ele>
        <time>2008-02-17T09:24:39.004Z</time>
      </trkpt>
      <trkpt lat="42.88204" lon="0.10989">
        <ele>1832.884277</ele>
        <time>2008-02-17T09:24:49.000Z</time>
      </trkpt>
      <trkpt lat="42.88204" lon="0.10985">
        <ele>1832.884277</ele>
        <time>2008-02-17T09:25:16.000Z</time>
      </trkpt>
      <trkpt lat="42.88199" lon="0.10985">
        <ele>1831.939331</ele>
        <time>2008-02-17T09:25:33.997Z</time>
      </trkpt>
      <trkpt lat="42.88197" lon="0.1099">
        <ele>1833.371948</ele>
        <time>2008-02-17T09:25:56.004Z</time>
      </trkpt>
      <trkpt lat="42.88191" lon="0.10992">
        <ele>1834.347412</ele>
        <time>2008-02-17T09:26:07.002Z</time>
      </trkpt>
      <trkpt lat="42.88185" lon="0.10997">
        <ele>1835.292236</ele>
        <time>2008-02-17T09:26:18.001Z</time>
      </trkpt>
      <trkpt lat="42.88179" lon="0.11001">
        <ele>1837.212524</ele>
        <time>2008-02-17T09:26:29.000Z</time>
      </trkpt>
      <trkpt lat="42.88171" lon="0.11006">
        <ele>1840.108154</ele>
        <time>2008-02-17T09:26:41.001Z</time>
      </trkpt>
      <trkpt lat="42.88163" lon="0.11006">
        <ele>1842.02832</ele>
        <time>2008-02-17T09:26:56.000Z</time>
      </trkpt>
      <trkpt lat="42.88153" lon="0.11011">
        <ele>1845.868774</ele>
        <time>2008-02-17T09:27:13.003Z</time>
      </trkpt>
      <trkpt lat="42.88144" lon="0.11016">
        <ele>1847.301392</ele>
        <time>2008-02-17T09:27:28.002Z</time>
      </trkpt>
      <trkpt lat="42.88133" lon="0.11025">
        <ele>1849.709351</ele>
        <time>2008-02-17T09:27:44.997Z</time>
      </trkpt>
      <trkpt lat="42.88124" lon="0.11029">
        <ele>1851.629517</ele>
        <time>2008-02-17T09:28:00.998Z</time>
      </trkpt>
      <trkpt lat="42.88113" lon="0.11037">
        <ele>1853.549805</ele>
        <time>2008-02-17T09:28:21.000Z</time>
      </trkpt>
      <trkpt lat="42.88106" lon="0.11042">
        <ele>1855.012817</ele>
        <time>2008-02-17T09:28:33.001Z</time>
      </trkpt>
      <trkpt lat="42.88097" lon="0.11045">
        <ele>1855.957764</ele>
        <time>2008-02-17T09:28:49.002Z</time>
      </trkpt>
      <trkpt lat="42.88088" lon="0.11052">
        <ele>1859.798218</ele>
        <time>2008-02-17T09:29:04.001Z</time>
      </trkpt>
      <trkpt lat="42.88082" lon="0.11055">
        <ele>1861.26123</ele>
        <time>2008-02-17T09:29:16.002Z</time>
      </trkpt>
      <trkpt lat="42.88074" lon="0.11058">
        <ele>1863.63855</ele>
        <time>2008-02-17T09:29:28.997Z</time>
      </trkpt>
      <trkpt lat="42.88067" lon="0.1106">
        <ele>1865.589478</ele>
        <time>2008-02-17T09:29:43.002Z</time>
      </trkpt>
      <trkpt lat="42.88059" lon="0.11061">
        <ele>1870.374634</ele>
        <time>2008-02-17T09:29:58.001Z</time>
      </trkpt>
      <trkpt lat="42.88052" lon="0.11065">
        <ele>1872.295044</ele>
        <time>2008-02-17T09:30:11.998Z</time>
      </trkpt>
      <trkpt lat="42.88045" lon="0.11067">
        <ele>1875.678223</ele>
        <time>2008-02-17T09:30:22.003Z</time>
      </trkpt>
      <trkpt lat="42.88036" lon="0.11073">
        <ele>1876.135376</ele>
        <time>2008-02-17T09:30:37.002Z</time>
      </trkpt>
      <trkpt lat="42.88028" lon="0.11075">
        <ele>1878.086182</ele>
        <time>2008-02-17T09:30:49.003Z</time>
      </trkpt>
      <trkpt lat="42.8802" lon="0.1108">
        <ele>1880.463623</ele>
        <time>2008-02-17T09:31:03.000Z</time>
      </trkpt>
      <trkpt lat="42.8801" lon="0.11086">
        <ele>1882.383789</ele>
        <time>2008-02-17T09:31:19.001Z</time>
      </trkpt>
      <trkpt lat="42.87999" lon="0.11092">
        <ele>1885.279419</ele>
        <time>2008-02-17T09:31:35.996Z</time>
      </trkpt>
      <trkpt lat="42.87995" lon="0.11106">
        <ele>1888.66272</ele>
        <time>2008-02-17T09:31:53.000Z</time>
      </trkpt>
      <trkpt lat="42.87997" lon="0.11123">
        <ele>1891.527832</ele>
        <time>2008-02-17T09:32:10.003Z</time>
      </trkpt>
      <trkpt lat="42.87992" lon="0.11136">
        <ele>1894.42334</ele>
        <time>2008-02-17T09:32:29.003Z</time>
      </trkpt>
      <trkpt lat="42.87983" lon="0.11149">
        <ele>1896.34375</ele>
        <time>2008-02-17T09:32:47.000Z</time>
      </trkpt>
      <trkpt lat="42.87977" lon="0.11155">
        <ele>1898.263916</ele>
        <time>2008-02-17T09:33:00.003Z</time>
      </trkpt>
      <trkpt lat="42.87971" lon="0.11152">
        <ele>1899.696533</ele>
        <time>2008-02-17T09:33:16.004Z</time>
      </trkpt>
      <trkpt lat="42.8797" lon="0.11152">
        <ele>1900.671753</ele>
        <time>2008-02-17T09:33:31.997Z</time>
      </trkpt>
      <trkpt lat="42.87969" lon="0.1115">
        <ele>1893.935791</ele>
        <time>2008-02-17T09:33:54.996Z</time>
      </trkpt>
      <trkpt lat="42.87968" lon="0.11152">
        <ele>1896.831421</ele>
        <time>2008-02-17T09:34:29.004Z</time>
      </trkpt>
      <trkpt lat="42.87969" lon="0.11152">
        <ele>1902.592163</ele>
        <time>2008-02-17T09:35:08.998Z</time>
      </trkpt>
      <trkpt lat="42.87968" lon="0.11151">
        <ele>1906.432617</ele>
        <time>2008-02-17T09:35:49.001Z</time>
      </trkpt>
      <trkpt lat="42.87968" lon="0.11151">
        <ele>1905.457153</ele>
        <time>2008-02-17T09:36:02.998Z</time>
      </trkpt>
      <trkpt lat="42.87958" lon="0.11151">
        <ele>1908.352783</ele>
        <time>2008-02-17T09:37:15.004Z</time>
      </trkpt>
      <trkpt lat="42.87955" lon="0.11149">
        <ele>1907.407837</ele>
        <time>2008-02-17T09:37:38.997Z</time>
      </trkpt>
      <trkpt lat="42.87945" lon="0.11154">
        <ele>1910.272949</ele>
        <time>2008-02-17T09:37:53.996Z</time>
      </trkpt>
      <trkpt lat="42.87934" lon="0.11165">
        <ele>1914.601196</ele>
        <time>2008-02-17T09:38:11.000Z</time>
      </trkpt>
      <trkpt lat="42.87929" lon="0.11167">
        <ele>1917.009033</ele>
        <time>2008-02-17T09:38:24.003Z</time>
      </trkpt>
      <trkpt lat="42.87914" lon="0.1117">
        <ele>1921.33728</ele>
        <time>2008-02-17T09:38:43.002Z</time>
      </trkpt>
      <trkpt lat="42.87905" lon="0.1118">
        <ele>1923.745239</ele>
        <time>2008-02-17T09:38:59.997Z</time>
      </trkpt>
      <trkpt lat="42.87903" lon="0.11177">
        <ele>1924.690063</ele>
        <time>2008-02-17T09:39:14.996Z</time>
      </trkpt>
      <trkpt lat="42.87897" lon="0.11179">
        <ele>1927.098022</ele>
        <time>2008-02-17T09:39:52.001Z</time>
      </trkpt>
      <trkpt lat="42.8789" lon="0.11187">
        <ele>1929.993652</ele>
        <time>2008-02-17T09:40:09.998Z</time>
      </trkpt>
      <trkpt lat="42.87888" lon="0.11193">
        <ele>1930.450806</ele>
        <time>2008-02-17T09:40:28.998Z</time>
      </trkpt>
      <trkpt lat="42.87881" lon="0.11182">
        <ele>1934.321777</ele>
        <time>2008-02-17T09:40:44.999Z</time>
      </trkpt>
      <trkpt lat="42.8788" lon="0.11172">
        <ele>1936.699219</ele>
        <time>2008-02-17T09:40:58.996Z</time>
      </trkpt>
      <trkpt lat="42.87875" lon="0.11158">
        <ele>1940.08252</ele>
        <time>2008-02-17T09:41:17.002Z</time>
      </trkpt>
      <trkpt lat="42.87874" lon="0.11145">
        <ele>1941.515015</ele>
        <time>2008-02-17T09:41:33.003Z</time>
      </trkpt>
      <trkpt lat="42.87876" lon="0.11134">
        <ele>1942.947632</ele>
        <time>2008-02-17T09:41:47.000Z</time>
      </trkpt>
      <trkpt lat="42.87876" lon="0.11124">
        <ele>1944.898315</ele>
        <time>2008-02-17T09:42:01.999Z</time>
      </trkpt>
      <trkpt lat="42.87874" lon="0.11112">
        <ele>1950.658936</ele>
        <time>2008-02-17T09:42:19.002Z</time>
      </trkpt>
      <trkpt lat="42.87875" lon="0.11101">
        <ele>1952.091553</ele>
        <time>2008-02-17T09:42:31.997Z</time>
      </trkpt>
      <trkpt lat="42.87875" lon="0.11092">
        <ele>1953.52417</ele>
        <time>2008-02-17T09:42:47.998Z</time>
      </trkpt>
      <trkpt lat="42.87873" lon="0.11092">
        <ele>1955.932129</ele>
        <time>2008-02-17T09:43:03.999Z</time>
      </trkpt>
      <trkpt lat="42.8787" lon="0.11096">
        <ele>1956.907349</ele>
        <time>2008-02-17T09:43:18.998Z</time>
      </trkpt>
      <trkpt lat="42.87865" lon="0.11101">
        <ele>1958.339966</ele>
        <time>2008-02-17T09:43:33.004Z</time>
      </trkpt>
      <trkpt lat="42.87857" lon="0.1111">
        <ele>1961.692749</ele>
        <time>2008-02-17T09:43:49.999Z</time>
      </trkpt>
      <trkpt lat="42.8785" lon="0.11115">
        <ele>1964.100708</ele>
        <time>2008-02-17T09:44:03.002Z</time>
      </trkpt>
      <trkpt lat="42.87841" lon="0.11121">
        <ele>1966.996338</ele>
        <time>2008-02-17T09:44:19.003Z</time>
      </trkpt>
      <trkpt lat="42.87836" lon="0.11127">
        <ele>1969.891846</ele>
        <time>2008-02-17T09:44:31.004Z</time>
      </trkpt>
      <trkpt lat="42.8783" lon="0.11133">
        <ele>1971.812256</ele>
        <time>2008-02-17T09:44:43.999Z</time>
      </trkpt>
      <trkpt lat="42.87824" lon="0.1114">
        <ele>1973.244751</ele>
        <time>2008-02-17T09:45:01.002Z</time>
      </trkpt>
      <trkpt lat="42.87822" lon="0.1114">
        <ele>1974.677368</ele>
        <time>2008-02-17T09:45:17.997Z</time>
      </trkpt>
      <trkpt lat="42.87822" lon="0.11131">
        <ele>1975.652588</ele>
        <time>2008-02-17T09:45:29.998Z</time>
      </trkpt>
      <trkpt lat="42.8782" lon="0.1112">
        <ele>1977.572876</ele>
        <time>2008-02-17T09:45:43.001Z</time>
      </trkpt>
      <trkpt lat="42.87821" lon="0.11111">
        <ele>1979.980835</ele>
        <time>2008-02-17T09:45:58.000Z</time>
      </trkpt>
      <trkpt lat="42.87823" lon="0.111">
        <ele>1982.388672</ele>
        <time>2008-02-17T09:46:14.002Z</time>
      </trkpt>
      <trkpt lat="42.87823" lon="0.11096">
        <ele>1983.821289</ele>
        <time>2008-02-17T09:46:27.998Z</time>
      </trkpt>
      <trkpt lat="42.87822" lon="0.11095">
        <ele>1984.30896</ele>
        <time>2008-02-17T09:46:56.001Z</time>
      </trkpt>
      <trkpt lat="42.87813" lon="0.11103">
        <ele>1987.174072</ele>
        <time>2008-02-17T09:47:13.004Z</time>
      </trkpt>
      <trkpt lat="42.87805" lon="0.1111">
        <ele>1989.582031</ele>
        <time>2008-02-17T09:47:28.997Z</time>
      </trkpt>
      <trkpt lat="42.87797" lon="0.11117">
        <ele>1991.989868</ele>
        <time>2008-02-17T09:47:44.998Z</time>
      </trkpt>
      <trkpt lat="42.87796" lon="0.1112">
        <ele>1992.965332</ele>
        <time>2008-02-17T09:47:59.997Z</time>
      </trkpt>
      <trkpt lat="42.87796" lon="0.11112">
        <ele>1993.910278</ele>
        <time>2008-02-17T09:48:13.000Z</time>
      </trkpt>
      <trkpt lat="42.87801" lon="0.11096">
        <ele>1996.318115</ele>
        <time>2008-02-17T09:48:30.004Z</time>
      </trkpt>
      <trkpt lat="42.87802" lon="0.1108">
        <ele>1999.670898</ele>
        <time>2008-02-17T09:48:46.999Z</time>
      </trkpt>
      <trkpt lat="42.87801" lon="0.11075">
        <ele>2001.133911</ele>
        <time>2008-02-17T09:49:03.000Z</time>
      </trkpt>
      <trkpt lat="42.87797" lon="0.11081">
        <ele>2002.566528</ele>
        <time>2008-02-17T09:49:16.003Z</time>
      </trkpt>
      <trkpt lat="42.87789" lon="0.1109">
        <ele>2004.974365</ele>
        <time>2008-02-17T09:49:31.002Z</time>
      </trkpt>
      <trkpt lat="42.8778" lon="0.11095">
        <ele>2008.814941</ele>
        <time>2008-02-17T09:49:47.997Z</time>
      </trkpt>
      <trkpt lat="42.87779" lon="0.11096">
        <ele>2010.247437</ele>
        <time>2008-02-17T09:50:02.996Z</time>
      </trkpt>
      <trkpt lat="42.87774" lon="0.11102">
        <ele>2012.167725</ele>
        <time>2008-02-17T09:50:17.002Z</time>
      </trkpt>
      <trkpt lat="42.87772" lon="0.11098">
        <ele>2013.630737</ele>
        <time>2008-02-17T09:50:33.003Z</time>
      </trkpt>
      <trkpt lat="42.87769" lon="0.11103">
        <ele>2015.063354</ele>
        <time>2008-02-17T09:50:45.004Z</time>
      </trkpt>
      <trkpt lat="42.87766" lon="0.11109">
        <ele>2017.471191</ele>
        <time>2008-02-17T09:50:57.998Z</time>
      </trkpt>
      <trkpt lat="42.87762" lon="0.11117">
        <ele>2019.87915</ele>
        <time>2008-02-17T09:51:12.004Z</time>
      </trkpt>
      <trkpt lat="42.8776" lon="0.1112">
        <ele>2021.799438</ele>
        <time>2008-02-17T09:51:26.001Z</time>
      </trkpt>
      <trkpt lat="42.87755" lon="0.11125">
        <ele>2022.256592</ele>
        <time>2008-02-17T09:51:45.000Z</time>
      </trkpt>
      <trkpt lat="42.87755" lon="0.11127">
        <ele>2023.719604</ele>
        <time>2008-02-17T09:52:06.997Z</time>
      </trkpt>
      <trkpt lat="42.87752" lon="0.11132">
        <ele>2023.719604</ele>
        <time>2008-02-17T09:52:21.996Z</time>
      </trkpt>
      <trkpt lat="42.87751" lon="0.11137">
        <ele>2023.719604</ele>
        <time>2008-02-17T09:52:28.001Z</time>
      </trkpt>
      <trkpt lat="42.87751" lon="0.11152">
        <ele>2023.231934</ele>
        <time>2008-02-17T09:52:41.998Z</time>
      </trkpt>
      <trkpt lat="42.87752" lon="0.11155">
        <ele>2022.256592</ele>
        <time>2008-02-17T09:52:47.001Z</time>
      </trkpt>
      <trkpt lat="42.8775" lon="0.11171">
        <ele>2024.207275</ele>
        <time>2008-02-17T09:53:00.997Z</time>
      </trkpt>
      <trkpt lat="42.87747" lon="0.11192">
        <ele>2026.127441</ele>
        <time>2008-02-17T09:53:16.999Z</time>
      </trkpt>
      <trkpt lat="42.87745" lon="0.11196">
        <ele>2027.072388</ele>
        <time>2008-02-17T09:53:33.000Z</time>
      </trkpt>
      <trkpt lat="42.87736" lon="0.11209">
        <ele>2030.455688</ele>
        <time>2008-02-17T09:53:50.997Z</time>
      </trkpt>
      <trkpt lat="42.8773" lon="0.1122">
        <ele>2033.320801</ele>
        <time>2008-02-17T09:54:06.998Z</time>
      </trkpt>
      <trkpt lat="42.87726" lon="0.11221">
        <ele>2035.728638</ele>
        <time>2008-02-17T09:54:23.000Z</time>
      </trkpt>
      <trkpt lat="42.87715" lon="0.11228">
        <ele>2041.001831</ele>
        <time>2008-02-17T09:54:40.997Z</time>
      </trkpt>
      <trkpt lat="42.87705" lon="0.11245">
        <ele>2043.897461</ele>
        <time>2008-02-17T09:54:59.996Z</time>
      </trkpt>
      <trkpt lat="42.87699" lon="0.11247">
        <ele>2044.872681</ele>
        <time>2008-02-17T09:55:18.002Z</time>
      </trkpt>
      <trkpt lat="42.87699" lon="0.11246">
        <ele>2044.872681</ele>
        <time>2008-02-17T09:55:46.998Z</time>
      </trkpt>
      <trkpt lat="42.87692" lon="0.11247">
        <ele>2046.305298</ele>
        <time>2008-02-17T09:56:04.001Z</time>
      </trkpt>
      <trkpt lat="42.87691" lon="0.11248">
        <ele>2047.250244</ele>
        <time>2008-02-17T09:56:32.004Z</time>
      </trkpt>
      <trkpt lat="42.87691" lon="0.11247">
        <ele>2047.250244</ele>
        <time>2008-02-17T09:57:02.002Z</time>
      </trkpt>
      <trkpt lat="42.87692" lon="0.11247">
        <ele>2046.305298</ele>
        <time>2008-02-17T09:57:34.998Z</time>
      </trkpt>
      <trkpt lat="42.87691" lon="0.11248">
        <ele>2047.250244</ele>
        <time>2008-02-17T09:58:12.996Z</time>
      </trkpt>
      <trkpt lat="42.8769" lon="0.11249">
        <ele>2047.737793</ele>
        <time>2008-02-17T09:58:58.002Z</time>
      </trkpt>
      <trkpt lat="42.87681" lon="0.11248">
        <ele>2047.250244</ele>
        <time>2008-02-17T09:59:13.001Z</time>
      </trkpt>
      <trkpt lat="42.87672" lon="0.11244">
        <ele>2046.792969</ele>
        <time>2008-02-17T09:59:29.996Z</time>
      </trkpt>
      <trkpt lat="42.87664" lon="0.11246">
        <ele>2046.792969</ele>
        <time>2008-02-17T09:59:41.997Z</time>
      </trkpt>
      <trkpt lat="42.87655" lon="0.11243">
        <ele>2046.792969</ele>
        <time>2008-02-17T09:59:56.003Z</time>
      </trkpt>
      <trkpt lat="42.87652" lon="0.1124">
        <ele>2046.792969</ele>
        <time>2008-02-17T10:00:09.999Z</time>
      </trkpt>
      <trkpt lat="42.87651" lon="0.11238">
        <ele>2047.250244</ele>
        <time>2008-02-17T10:00:26.001Z</time>
      </trkpt>
      <trkpt lat="42.87652" lon="0.11236">
        <ele>2047.250244</ele>
        <time>2008-02-17T10:00:42.002Z</time>
      </trkpt>
      <trkpt lat="42.87643" lon="0.11237">
        <ele>2046.305298</ele>
        <time>2008-02-17T10:01:21.003Z</time>
      </trkpt>
      <trkpt lat="42.87637" lon="0.11241">
        <ele>2046.305298</ele>
        <time>2008-02-17T10:01:35.000Z</time>
      </trkpt>
      <trkpt lat="42.87629" lon="0.1125">
        <ele>2048.225586</ele>
        <time>2008-02-17T10:01:51.001Z</time>
      </trkpt>
      <trkpt lat="42.87629" lon="0.11251">
        <ele>2048.713135</ele>
        <time>2008-02-17T10:02:11.003Z</time>
      </trkpt>
      <trkpt lat="42.87628" lon="0.11251">
        <ele>2050.633301</ele>
        <time>2008-02-17T10:03:06.998Z</time>
      </trkpt>
      <trkpt lat="42.8762" lon="0.11257">
        <ele>2053.498535</ele>
        <time>2008-02-17T10:03:39.001Z</time>
      </trkpt>
      <trkpt lat="42.87602" lon="0.11268">
        <ele>2056.881836</ele>
        <time>2008-02-17T10:03:59.003Z</time>
      </trkpt>
      <trkpt lat="42.87591" lon="0.11278">
        <ele>2058.314453</ele>
        <time>2008-02-17T10:04:15.997Z</time>
      </trkpt>
      <trkpt lat="42.87581" lon="0.11287">
        <ele>2058.314453</ele>
        <time>2008-02-17T10:04:29.001Z</time>
      </trkpt>
      <trkpt lat="42.87568" lon="0.11298">
        <ele>2059.289795</ele>
        <time>2008-02-17T10:04:45.002Z</time>
      </trkpt>
      <trkpt lat="42.87555" lon="0.1131">
        <ele>2060.722412</ele>
        <time>2008-02-17T10:05:01.997Z</time>
      </trkpt>
      <trkpt lat="42.87544" lon="0.11318">
        <ele>2063.130127</ele>
        <time>2008-02-17T10:05:16.002Z</time>
      </trkpt>
      <trkpt lat="42.87532" lon="0.11324">
        <ele>2065.995361</ele>
        <time>2008-02-17T10:05:29.999Z</time>
      </trkpt>
      <trkpt lat="42.87525" lon="0.11326">
        <ele>2068.891113</ele>
        <time>2008-02-17T10:05:43.002Z</time>
      </trkpt>
      <trkpt lat="42.87521" lon="0.1133">
        <ele>2071.298828</ele>
        <time>2008-02-17T10:05:55.003Z</time>
      </trkpt>
      <trkpt lat="42.87517" lon="0.11334">
        <ele>2069.866211</ele>
        <time>2008-02-17T10:06:11.998Z</time>
      </trkpt>
      <trkpt lat="42.87507" lon="0.11342">
        <ele>2069.866211</ele>
        <time>2008-02-17T10:06:34.004Z</time>
      </trkpt>
      <trkpt lat="42.87497" lon="0.11351">
        <ele>2070.323486</ele>
        <time>2008-02-17T10:06:45.996Z</time>
      </trkpt>
      <trkpt lat="42.87486" lon="0.11364">
        <ele>2071.786621</ele>
        <time>2008-02-17T10:07:01.004Z</time>
      </trkpt>
      <trkpt lat="42.87471" lon="0.11379">
        <ele>2073.218994</ele>
        <time>2008-02-17T10:07:16.997Z</time>
      </trkpt>
      <trkpt lat="42.87464" lon="0.11385">
        <ele>2072.731445</ele>
        <time>2008-02-17T10:07:31.996Z</time>
      </trkpt>
      <trkpt lat="42.87454" lon="0.11393">
        <ele>2071.298828</ele>
        <time>2008-02-17T10:07:57.000Z</time>
      </trkpt>
      <trkpt lat="42.87437" lon="0.11408">
        <ele>2073.218994</ele>
        <time>2008-02-17T10:08:13.001Z</time>
      </trkpt>
      <trkpt lat="42.87432" lon="0.11412">
        <ele>2074.651611</ele>
        <time>2008-02-17T10:08:29.996Z</time>
      </trkpt>
      <trkpt lat="42.87423" lon="0.11415">
        <ele>2075.139404</ele>
        <time>2008-02-17T10:08:53.998Z</time>
      </trkpt>
      <trkpt lat="42.87412" lon="0.11419">
        <ele>2075.139404</ele>
        <time>2008-02-17T10:09:09.999Z</time>
      </trkpt>
      <trkpt lat="42.87412" lon="0.11419">
        <ele>2076.114746</ele>
        <time>2008-02-17T10:10:30.999Z</time>
      </trkpt>
      <trkpt lat="42.87412" lon="0.11418">
        <ele>2077.05957</ele>
        <time>2008-02-17T10:11:27.004Z</time>
      </trkpt>
      <trkpt lat="42.87412" lon="0.11418">
        <ele>2077.05957</ele>
        <time>2008-02-17T10:12:52.998Z</time>
      </trkpt>
      <trkpt lat="42.87412" lon="0.11418">
        <ele>2076.114746</ele>
        <time>2008-02-17T10:13:15.997Z</time>
      </trkpt>
      <trkpt lat="42.87411" lon="0.11419">
        <ele>2076.114746</ele>
        <time>2008-02-17T10:13:17.000Z</time>
      </trkpt>
      <trkpt lat="42.87389" lon="0.11427">
        <ele>2077.05957</ele>
        <time>2008-02-17T10:13:34.003Z</time>
      </trkpt>
      <trkpt lat="42.87388" lon="0.11427">
        <ele>2077.547363</ele>
        <time>2008-02-17T10:13:34.997Z</time>
      </trkpt>
      <trkpt lat="42.87382" lon="0.11431">
        <ele>2078.034912</ele>
        <time>2008-02-17T10:13:39.999Z</time>
      </trkpt>
      <trkpt lat="42.87364" lon="0.11443">
        <ele>2079.467529</ele>
        <time>2008-02-17T10:13:57.003Z</time>
      </trkpt>
      <trkpt lat="42.8735" lon="0.11451">
        <ele>2081.387939</ele>
        <time>2008-02-17T10:14:11.000Z</time>
      </trkpt>
      <trkpt lat="42.87332" lon="0.11457">
        <ele>2082.820313</ele>
        <time>2008-02-17T10:14:27.001Z</time>
      </trkpt>
      <trkpt lat="42.87316" lon="0.11464">
        <ele>2083.795654</ele>
        <time>2008-02-17T10:14:42.000Z</time>
      </trkpt>
      <trkpt lat="42.87314" lon="0.11464">
        <ele>2084.283447</ele>
        <time>2008-02-17T10:14:43.996Z</time>
      </trkpt>
      <trkpt lat="42.87296" lon="0.11471">
        <ele>2086.203613</ele>
        <time>2008-02-17T10:14:59.004Z</time>
      </trkpt>
      <trkpt lat="42.87278" lon="0.11475">
        <ele>2088.611572</ele>
        <time>2008-02-17T10:15:14.996Z</time>
      </trkpt>
      <trkpt lat="42.87265" lon="0.11477">
        <ele>2089.068604</ele>
        <time>2008-02-17T10:15:30.004Z</time>
      </trkpt>
      <trkpt lat="42.87257" lon="0.11488">
        <ele>2091.964355</ele>
        <time>2008-02-17T10:15:50.999Z</time>
      </trkpt>
      <trkpt lat="42.87258" lon="0.11494">
        <ele>2092.939697</ele>
        <time>2008-02-17T10:15:57.997Z</time>
      </trkpt>
      <trkpt lat="42.87256" lon="0.11504">
        <ele>2093.396973</ele>
        <time>2008-02-17T10:16:12.996Z</time>
      </trkpt>
      <trkpt lat="42.8725" lon="0.11514">
        <ele>2095.804688</ele>
        <time>2008-02-17T10:16:24.997Z</time>
      </trkpt>
      <trkpt lat="42.87237" lon="0.11523">
        <ele>2098.700439</ele>
        <time>2008-02-17T10:16:39.996Z</time>
      </trkpt>
      <trkpt lat="42.87231" lon="0.11526">
        <ele>2100.133057</ele>
        <time>2008-02-17T10:16:47.004Z</time>
      </trkpt>
      <trkpt lat="42.8722" lon="0.11524">
        <ele>2102.541016</ele>
        <time>2008-02-17T10:16:59.998Z</time>
      </trkpt>
      <trkpt lat="42.87208" lon="0.11526">
        <ele>2106.381348</ele>
        <time>2008-02-17T10:17:14.997Z</time>
      </trkpt>
      <trkpt lat="42.87197" lon="0.11527">
        <ele>2109.2771</ele>
        <time>2008-02-17T10:17:30.998Z</time>
      </trkpt>
      <trkpt lat="42.87194" lon="0.11534">
        <ele>2112.629883</ele>
        <time>2008-02-17T10:17:44.002Z</time>
      </trkpt>
      <trkpt lat="42.87188" lon="0.11543">
        <ele>2116.470215</ele>
        <time>2008-02-17T10:17:59.001Z</time>
      </trkpt>
      <trkpt lat="42.87174" lon="0.11552">
        <ele>2120.310791</ele>
        <time>2008-02-17T10:18:16.998Z</time>
      </trkpt>
      <trkpt lat="42.87162" lon="0.11565">
        <ele>2122.718506</ele>
        <time>2008-02-17T10:18:34.001Z</time>
      </trkpt>
      <trkpt lat="42.87152" lon="0.11586">
        <ele>2124.638916</ele>
        <time>2008-02-17T10:18:51.998Z</time>
      </trkpt>
      <trkpt lat="42.87143" lon="0.11609">
        <ele>2126.559082</ele>
        <time>2008-02-17T10:19:09.002Z</time>
      </trkpt>
      <trkpt lat="42.87136" lon="0.11627">
        <ele>2128.022217</ele>
        <time>2008-02-17T10:19:25.003Z</time>
      </trkpt>
      <trkpt lat="42.87128" lon="0.11647">
        <ele>2128.967041</ele>
        <time>2008-02-17T10:19:40.996Z</time>
      </trkpt>
      <trkpt lat="42.87118" lon="0.11659">
        <ele>2130.430176</ele>
        <time>2008-02-17T10:19:56.004Z</time>
      </trkpt>
      <trkpt lat="42.87112" lon="0.11671">
        <ele>2130.887207</ele>
        <time>2008-02-17T10:20:04.004Z</time>
      </trkpt>
      <trkpt lat="42.87107" lon="0.11675">
        <ele>2130.430176</ele>
        <time>2008-02-17T10:20:11.003Z</time>
      </trkpt>
      <trkpt lat="42.87106" lon="0.11675">
        <ele>2130.430176</ele>
        <time>2008-02-17T10:20:12.998Z</time>
      </trkpt>
      <trkpt lat="42.87098" lon="0.11692">
        <ele>2129.942383</ele>
        <time>2008-02-17T10:20:23.997Z</time>
      </trkpt>
      <trkpt lat="42.87085" lon="0.11709">
        <ele>2129.45459</ele>
        <time>2008-02-17T10:20:39.998Z</time>
      </trkpt>
      <trkpt lat="42.87083" lon="0.11714">
        <ele>2128.967041</ele>
        <time>2008-02-17T10:20:54.997Z</time>
      </trkpt>
      <trkpt lat="42.87081" lon="0.11726">
        <ele>2131.375</ele>
        <time>2008-02-17T10:21:08.001Z</time>
      </trkpt>
      <trkpt lat="42.87074" lon="0.11745">
        <ele>2132.350342</ele>
        <time>2008-02-17T10:21:21.997Z</time>
      </trkpt>
      <trkpt lat="42.87073" lon="0.1175">
        <ele>2132.807373</ele>
        <time>2008-02-17T10:21:25.998Z</time>
      </trkpt>
      <trkpt lat="42.87065" lon="0.11769">
        <ele>2136.190918</ele>
        <time>2008-02-17T10:21:40.003Z</time>
      </trkpt>
      <trkpt lat="42.87058" lon="0.11788">
        <ele>2137.623535</ele>
        <time>2008-02-17T10:21:54.000Z</time>
      </trkpt>
      <trkpt lat="42.87051" lon="0.11808">
        <ele>2141.463867</ele>
        <time>2008-02-17T10:22:12.999Z</time>
      </trkpt>
      <trkpt lat="42.87052" lon="0.1181">
        <ele>2142.439209</ele>
        <time>2008-02-17T10:22:15.997Z</time>
      </trkpt>
      <trkpt lat="42.87049" lon="0.11822">
        <ele>2146.279785</ele>
        <time>2008-02-17T10:22:30.003Z</time>
      </trkpt>
      <trkpt lat="42.87048" lon="0.11823">
        <ele>2146.279785</ele>
        <time>2008-02-17T10:22:30.996Z</time>
      </trkpt>
      <trkpt lat="42.87038" lon="0.11837">
        <ele>2148.6875</ele>
        <time>2008-02-17T10:22:46.998Z</time>
      </trkpt>
      <trkpt lat="42.87033" lon="0.11851">
        <ele>2152.040283</ele>
        <time>2008-02-17T10:23:01.997Z</time>
      </trkpt>
      <trkpt lat="42.87033" lon="0.11852">
        <ele>2153.015869</ele>
        <time>2008-02-17T10:23:20.996Z</time>
      </trkpt>
      <trkpt lat="42.8703" lon="0.11855">
        <ele>2153.960693</ele>
        <time>2008-02-17T10:23:40.004Z</time>
      </trkpt>
      <trkpt lat="42.87017" lon="0.11863">
        <ele>2156.368652</ele>
        <time>2008-02-17T10:23:54.001Z</time>
      </trkpt>
      <trkpt lat="42.87011" lon="0.11873">
        <ele>2159.26416</ele>
        <time>2008-02-17T10:24:06.002Z</time>
      </trkpt>
      <trkpt lat="42.87005" lon="0.11883">
        <ele>2161.184326</ele>
        <time>2008-02-17T10:24:17.001Z</time>
      </trkpt>
      <trkpt lat="42.86995" lon="0.11901">
        <ele>2164.537109</ele>
        <time>2008-02-17T10:24:34.998Z</time>
      </trkpt>
      <trkpt lat="42.86988" lon="0.11915">
        <ele>2167.92041</ele>
        <time>2008-02-17T10:24:50.999Z</time>
      </trkpt>
      <trkpt lat="42.86987" lon="0.11926">
        <ele>2171.273193</ele>
        <time>2008-02-17T10:25:07.000Z</time>
      </trkpt>
      <trkpt lat="42.86994" lon="0.11936">
        <ele>2174.626221</ele>
        <time>2008-02-17T10:25:23.002Z</time>
      </trkpt>
      <trkpt lat="42.8699" lon="0.11949">
        <ele>2178.009521</ele>
        <time>2008-02-17T10:25:36.998Z</time>
      </trkpt>
      <trkpt lat="42.86985" lon="0.11965">
        <ele>2180.874512</ele>
        <time>2008-02-17T10:25:53.000Z</time>
      </trkpt>
      <trkpt lat="42.86979" lon="0.1198">
        <ele>2183.282471</ele>
        <time>2008-02-17T10:26:07.999Z</time>
      </trkpt>
      <trkpt lat="42.86974" lon="0.11994">
        <ele>2184.745361</ele>
        <time>2008-02-17T10:26:22.004Z</time>
      </trkpt>
      <trkpt lat="42.8697" lon="0.12006">
        <ele>2186.177979</ele>
        <time>2008-02-17T10:26:32.001Z</time>
      </trkpt>
      <trkpt lat="42.86969" lon="0.12009">
        <ele>2186.665771</ele>
        <time>2008-02-17T10:26:33.996Z</time>
      </trkpt>
      <trkpt lat="42.86963" lon="0.12031">
        <ele>2188.585938</ele>
        <time>2008-02-17T10:26:52.002Z</time>
      </trkpt>
      <trkpt lat="42.86962" lon="0.12047">
        <ele>2190.506104</ele>
        <time>2008-02-17T10:27:05.999Z</time>
      </trkpt>
      <trkpt lat="42.86963" lon="0.12048">
        <ele>2192.426514</ele>
        <time>2008-02-17T10:27:31.997Z</time>
      </trkpt>
      <trkpt lat="42.86962" lon="0.12056">
        <ele>2193.371338</ele>
        <time>2008-02-17T10:28:14.998Z</time>
      </trkpt>
      <trkpt lat="42.86956" lon="0.12067">
        <ele>2192.426514</ele>
        <time>2008-02-17T10:28:29.004Z</time>
      </trkpt>
      <trkpt lat="42.86955" lon="0.12068">
        <ele>2192.426514</ele>
        <time>2008-02-17T10:28:36.002Z</time>
      </trkpt>
      <trkpt lat="42.86951" lon="0.12083">
        <ele>2191.938721</ele>
        <time>2008-02-17T10:28:51.001Z</time>
      </trkpt>
      <trkpt lat="42.8695" lon="0.12082">
        <ele>2190.018555</ele>
        <time>2008-02-17T10:29:22.001Z</time>
      </trkpt>
      <trkpt lat="42.8695" lon="0.12082">
        <ele>2190.506104</ele>
        <time>2008-02-17T10:29:50.004Z</time>
      </trkpt>
      <trkpt lat="42.86951" lon="0.12083">
        <ele>2189.073486</ele>
        <time>2008-02-17T10:30:14.999Z</time>
      </trkpt>
      <trkpt lat="42.86951" lon="0.12082">
        <ele>2190.506104</ele>
        <time>2008-02-17T10:30:28.002Z</time>
      </trkpt>
      <trkpt lat="42.86952" lon="0.12084">
        <ele>2190.993896</ele>
        <time>2008-02-17T10:30:48.997Z</time>
      </trkpt>
      <trkpt lat="42.8695" lon="0.12083">
        <ele>2191.450928</ele>
        <time>2008-02-17T10:31:23.998Z</time>
      </trkpt>
      <trkpt lat="42.86949" lon="0.12082">
        <ele>2190.506104</ele>
        <time>2008-02-17T10:33:15.998Z</time>
      </trkpt>
      <trkpt lat="42.8695" lon="0.12082">
        <ele>2190.993896</ele>
        <time>2008-02-17T10:33:48.001Z</time>
      </trkpt>
      <trkpt lat="42.8695" lon="0.12083">
        <ele>2190.506104</ele>
        <time>2008-02-17T10:34:07.000Z</time>
      </trkpt>
      <trkpt lat="42.86948" lon="0.12092">
        <ele>2190.993896</ele>
        <time>2008-02-17T10:34:11.001Z</time>
      </trkpt>
      <trkpt lat="42.86938" lon="0.12144">
        <ele>2190.993896</ele>
        <time>2008-02-17T10:34:32.998Z</time>
      </trkpt>
      <trkpt lat="42.86933" lon="0.12166">
        <ele>2191.450928</ele>
        <time>2008-02-17T10:34:44.999Z</time>
      </trkpt>
      <trkpt lat="42.86926" lon="0.12189">
        <ele>2190.993896</ele>
        <time>2008-02-17T10:34:58.002Z</time>
      </trkpt>
      <trkpt lat="42.86915" lon="0.12219">
        <ele>2190.993896</ele>
        <time>2008-02-17T10:35:17.002Z</time>
      </trkpt>
      <trkpt lat="42.86904" lon="0.1224">
        <ele>2191.450928</ele>
        <time>2008-02-17T10:35:32.001Z</time>
      </trkpt>
      <trkpt lat="42.86896" lon="0.12267">
        <ele>2191.938721</ele>
        <time>2008-02-17T10:35:49.004Z</time>
      </trkpt>
      <trkpt lat="42.86888" lon="0.12294">
        <ele>2192.914063</ele>
        <time>2008-02-17T10:36:05.999Z</time>
      </trkpt>
      <trkpt lat="42.8688" lon="0.12315">
        <ele>2193.371338</ele>
        <time>2008-02-17T10:36:20.998Z</time>
      </trkpt>
      <trkpt lat="42.86867" lon="0.12334">
        <ele>2193.859131</ele>
        <time>2008-02-17T10:36:36.999Z</time>
      </trkpt>
      <trkpt lat="42.86853" lon="0.12352">
        <ele>2196.266846</ele>
        <time>2008-02-17T10:36:54.003Z</time>
      </trkpt>
      <trkpt lat="42.86841" lon="0.12369">
        <ele>2198.187012</ele>
        <time>2008-02-17T10:37:12.000Z</time>
      </trkpt>
      <trkpt lat="42.86836" lon="0.12376">
        <ele>2201.082764</ele>
        <time>2008-02-17T10:37:28.001Z</time>
      </trkpt>
      <trkpt lat="42.86832" lon="0.12382">
        <ele>2203.00293</ele>
        <time>2008-02-17T10:37:36.002Z</time>
      </trkpt>
      <trkpt lat="42.86823" lon="0.12402">
        <ele>2204.923096</ele>
        <time>2008-02-17T10:37:53.999Z</time>
      </trkpt>
      <trkpt lat="42.86816" lon="0.12416">
        <ele>2206.843262</ele>
        <time>2008-02-17T10:38:07.002Z</time>
      </trkpt>
      <trkpt lat="42.86811" lon="0.12427">
        <ele>2209.739014</ele>
        <time>2008-02-17T10:38:19.003Z</time>
      </trkpt>
      <trkpt lat="42.86807" lon="0.12441">
        <ele>2212.116455</ele>
        <time>2008-02-17T10:38:33.000Z</time>
      </trkpt>
      <trkpt lat="42.86804" lon="0.12459">
        <ele>2213.57959</ele>
        <time>2008-02-17T10:38:46.997Z</time>
      </trkpt>
      <trkpt lat="42.86804" lon="0.12461">
        <ele>2214.067139</ele>
        <time>2008-02-17T10:39:13.003Z</time>
      </trkpt>
      <trkpt lat="42.86799" lon="0.12477">
        <ele>2216.44458</ele>
        <time>2008-02-17T10:39:28.002Z</time>
      </trkpt>
      <trkpt lat="42.86792" lon="0.12495">
        <ele>2217.907715</ele>
        <time>2008-02-17T10:39:41.999Z</time>
      </trkpt>
      <trkpt lat="42.86784" lon="0.12513">
        <ele>2219.340088</ele>
        <time>2008-02-17T10:39:59.003Z</time>
      </trkpt>
      <trkpt lat="42.8678" lon="0.1253">
        <ele>2221.748291</ele>
        <time>2008-02-17T10:40:12.999Z</time>
      </trkpt>
      <trkpt lat="42.86773" lon="0.12548">
        <ele>2225.101074</ele>
        <time>2008-02-17T10:40:30.996Z</time>
      </trkpt>
      <trkpt lat="42.86768" lon="0.12563">
        <ele>2227.508789</ele>
        <time>2008-02-17T10:40:45.002Z</time>
      </trkpt>
      <trkpt lat="42.86763" lon="0.12576">
        <ele>2229.916748</ele>
        <time>2008-02-17T10:40:58.999Z</time>
      </trkpt>
      <trkpt lat="42.86756" lon="0.12588">
        <ele>2232.8125</ele>
        <time>2008-02-17T10:41:15.000Z</time>
      </trkpt>
      <trkpt lat="42.86745" lon="0.12601">
        <ele>2235.189697</ele>
        <time>2008-02-17T10:41:32.997Z</time>
      </trkpt>
      <trkpt lat="42.86737" lon="0.12607">
        <ele>2237.110107</ele>
        <time>2008-02-17T10:41:50.001Z</time>
      </trkpt>
      <trkpt lat="42.8672" lon="0.1261">
        <ele>2241.438232</ele>
        <time>2008-02-17T10:42:10.996Z</time>
      </trkpt>
      <trkpt lat="42.86711" lon="0.1261">
        <ele>2243.388916</ele>
        <time>2008-02-17T10:42:26.997Z</time>
      </trkpt>
      <trkpt lat="42.86703" lon="0.12611">
        <ele>2245.309082</ele>
        <time>2008-02-17T10:42:36.000Z</time>
      </trkpt>
      <trkpt lat="42.86699" lon="0.12619">
        <ele>2246.741699</ele>
        <time>2008-02-17T10:42:49.003Z</time>
      </trkpt>
      <trkpt lat="42.86699" lon="0.1262">
        <ele>2246.741699</ele>
        <time>2008-02-17T10:42:49.997Z</time>
      </trkpt>
      <trkpt lat="42.86701" lon="0.12629">
        <ele>2248.662109</ele>
        <time>2008-02-17T10:43:00.002Z</time>
      </trkpt>
      <trkpt lat="42.86687" lon="0.12636">
        <ele>2254.422607</ele>
        <time>2008-02-17T10:43:20.004Z</time>
      </trkpt>
      <trkpt lat="42.86685" lon="0.12638">
        <ele>2255.398193</ele>
        <time>2008-02-17T10:43:34.000Z</time>
      </trkpt>
      <trkpt lat="42.86675" lon="0.12643">
        <ele>2257.318359</ele>
        <time>2008-02-17T10:43:48.999Z</time>
      </trkpt>
      <trkpt lat="42.86667" lon="0.12646">
        <ele>2259.238525</ele>
        <time>2008-02-17T10:44:01.000Z</time>
      </trkpt>
      <trkpt lat="42.86659" lon="0.12653">
        <ele>2264.054443</ele>
        <time>2008-02-17T10:44:15.999Z</time>
      </trkpt>
      <trkpt lat="42.8665" lon="0.12662">
        <ele>2266.919434</ele>
        <time>2008-02-17T10:44:33.996Z</time>
      </trkpt>
      <trkpt lat="42.86642" lon="0.12672">
        <ele>2269.327393</ele>
        <time>2008-02-17T10:44:51.000Z</time>
      </trkpt>
      <trkpt lat="42.86647" lon="0.12686">
        <ele>2272.680176</ele>
        <time>2008-02-17T10:45:08.004Z</time>
      </trkpt>
      <trkpt lat="42.86646" lon="0.12691">
        <ele>2273.655518</ele>
        <time>2008-02-17T10:45:12.997Z</time>
      </trkpt>
      <trkpt lat="42.86637" lon="0.127">
        <ele>2274.631104</ele>
        <time>2008-02-17T10:45:26.001Z</time>
      </trkpt>
      <trkpt lat="42.86629" lon="0.12704">
        <ele>2275.575684</ele>
        <time>2008-02-17T10:45:46.002Z</time>
      </trkpt>
      <trkpt lat="42.86619" lon="0.12709">
        <ele>2276.55127</ele>
        <time>2008-02-17T10:46:24.001Z</time>
      </trkpt>
      <trkpt lat="42.86608" lon="0.12717">
        <ele>2278.928467</ele>
        <time>2008-02-17T10:46:37.004Z</time>
      </trkpt>
      <trkpt lat="42.86602" lon="0.12721">
        <ele>2281.824219</ele>
        <time>2008-02-17T10:46:48.996Z</time>
      </trkpt>
      <trkpt lat="42.86597" lon="0.12724">
        <ele>2283.744629</ele>
        <time>2008-02-17T10:46:56.997Z</time>
      </trkpt>
      <trkpt lat="42.86591" lon="0.12728">
        <ele>2286.640137</ele>
        <time>2008-02-17T10:47:07.996Z</time>
      </trkpt>
      <trkpt lat="42.86584" lon="0.12733">
        <ele>2288.07251</ele>
        <time>2008-02-17T10:47:18.001Z</time>
      </trkpt>
      <trkpt lat="42.86572" lon="0.12743">
        <ele>2289.048096</ele>
        <time>2008-02-17T10:47:31.998Z</time>
      </trkpt>
      <trkpt lat="42.86568" lon="0.1275">
        <ele>2292.400879</ele>
        <time>2008-02-17T10:47:41.001Z</time>
      </trkpt>
      <trkpt lat="42.86561" lon="0.1276">
        <ele>2296.729004</ele>
        <time>2008-02-17T10:47:56.000Z</time>
      </trkpt>
      <trkpt lat="42.86554" lon="0.12765">
        <ele>2300.081787</ele>
        <time>2008-02-17T10:48:08.001Z</time>
      </trkpt>
      <trkpt lat="42.86545" lon="0.12768">
        <ele>2300.569336</ele>
        <time>2008-02-17T10:48:21.997Z</time>
      </trkpt>
      <trkpt lat="42.86541" lon="0.12769">
        <ele>2301.544922</ele>
        <time>2008-02-17T10:48:33.998Z</time>
      </trkpt>
      <trkpt lat="42.86534" lon="0.12774">
        <ele>2304.409912</ele>
        <time>2008-02-17T10:48:45.999Z</time>
      </trkpt>
      <trkpt lat="42.86528" lon="0.12781">
        <ele>2307.30542</ele>
        <time>2008-02-17T10:48:55.996Z</time>
      </trkpt>
      <trkpt lat="42.86524" lon="0.12789">
        <ele>2308.250488</ele>
        <time>2008-02-17T10:49:07.003Z</time>
      </trkpt>
      <trkpt lat="42.86519" lon="0.12798">
        <ele>2311.145996</ele>
        <time>2008-02-17T10:49:18.002Z</time>
      </trkpt>
      <trkpt lat="42.86515" lon="0.12805">
        <ele>2314.041504</ele>
        <time>2008-02-17T10:49:29.001Z</time>
      </trkpt>
      <trkpt lat="42.8651" lon="0.12814">
        <ele>2317.88208</ele>
        <time>2008-02-17T10:49:41.002Z</time>
      </trkpt>
      <trkpt lat="42.86501" lon="0.12827">
        <ele>2319.314697</ele>
        <time>2008-02-17T10:49:57.003Z</time>
      </trkpt>
      <trkpt lat="42.86492" lon="0.1284">
        <ele>2320.747314</ele>
        <time>2008-02-17T10:50:12.002Z</time>
      </trkpt>
      <trkpt lat="42.86486" lon="0.12851">
        <ele>2326.050781</ele>
        <time>2008-02-17T10:50:28.003Z</time>
      </trkpt>
      <trkpt lat="42.8648" lon="0.12861">
        <ele>2329.891113</ele>
        <time>2008-02-17T10:50:40.998Z</time>
      </trkpt>
      <trkpt lat="42.86471" lon="0.12871">
        <ele>2331.32373</ele>
        <time>2008-02-17T10:50:55.997Z</time>
      </trkpt>
      <trkpt lat="42.86468" lon="0.12874">
        <ele>2330.866699</ele>
        <time>2008-02-17T10:51:22.997Z</time>
      </trkpt>
      <trkpt lat="42.86457" lon="0.12887">
        <ele>2331.811279</ele>
        <time>2008-02-17T10:51:34.004Z</time>
      </trkpt>
      <trkpt lat="42.86442" lon="0.12904">
        <ele>2330.378906</ele>
        <time>2008-02-17T10:51:48.001Z</time>
      </trkpt>
      <trkpt lat="42.86437" lon="0.12926">
        <ele>2330.866699</ele>
        <time>2008-02-17T10:52:04.002Z</time>
      </trkpt>
      <trkpt lat="42.86435" lon="0.1294">
        <ele>2331.32373</ele>
        <time>2008-02-17T10:52:20.004Z</time>
      </trkpt>
      <trkpt lat="42.86435" lon="0.12944">
        <ele>2331.32373</ele>
        <time>2008-02-17T10:52:23.002Z</time>
      </trkpt>
      <trkpt lat="42.86435" lon="0.1295">
        <ele>2331.32373</ele>
        <time>2008-02-17T10:52:27.002Z</time>
      </trkpt>
      <trkpt lat="42.86436" lon="0.12973">
        <ele>2332.786865</ele>
        <time>2008-02-17T10:52:44.999Z</time>
      </trkpt>
      <trkpt lat="42.86437" lon="0.12985">
        <ele>2334.707031</ele>
        <time>2008-02-17T10:52:55.004Z</time>
      </trkpt>
      <trkpt lat="42.86437" lon="0.12999">
        <ele>2335.651855</ele>
        <time>2008-02-17T10:53:06.996Z</time>
      </trkpt>
      <trkpt lat="42.86437" lon="0.13005">
        <ele>2336.627197</ele>
        <time>2008-02-17T10:53:11.999Z</time>
      </trkpt>
      <trkpt lat="42.86432" lon="0.13029">
        <ele>2337.11499</ele>
        <time>2008-02-17T10:53:29.996Z</time>
      </trkpt>
      <trkpt lat="42.86427" lon="0.13041">
        <ele>2337.11499</ele>
        <time>2008-02-17T10:53:41.997Z</time>
      </trkpt>
      <trkpt lat="42.86423" lon="0.1305">
        <ele>2339.035156</ele>
        <time>2008-02-17T10:53:59.001Z</time>
      </trkpt>
      <trkpt lat="42.86423" lon="0.13054">
        <ele>2341.443115</ele>
        <time>2008-02-17T10:54:16.998Z</time>
      </trkpt>
      <trkpt lat="42.86422" lon="0.13053">
        <ele>2345.740723</ele>
        <time>2008-02-17T10:55:59.002Z</time>
      </trkpt>
      <trkpt lat="42.86422" lon="0.13055">
        <ele>2345.283691</ele>
        <time>2008-02-17T10:58:52.000Z</time>
      </trkpt>
      <trkpt lat="42.86423" lon="0.13061">
        <ele>2346.228516</ele>
        <time>2008-02-17T10:59:13.004Z</time>
      </trkpt>
      <trkpt lat="42.86422" lon="0.13075">
        <ele>2346.716309</ele>
        <time>2008-02-17T10:59:24.996Z</time>
      </trkpt>
      <trkpt lat="42.86422" lon="0.13085">
        <ele>2348.148682</ele>
        <time>2008-02-17T10:59:35.002Z</time>
      </trkpt>
      <trkpt lat="42.86423" lon="0.13099">
        <ele>2349.124023</ele>
        <time>2008-02-17T10:59:47.996Z</time>
      </trkpt>
      <trkpt lat="42.86423" lon="0.13107">
        <ele>2351.989258</ele>
        <time>2008-02-17T10:59:58.001Z</time>
      </trkpt>
      <trkpt lat="42.86421" lon="0.13115">
        <ele>2354.396973</ele>
        <time>2008-02-17T11:00:07.998Z</time>
      </trkpt>
      <trkpt lat="42.86418" lon="0.13121">
        <ele>2357.292725</ele>
        <time>2008-02-17T11:00:18.996Z</time>
      </trkpt>
      <trkpt lat="42.86417" lon="0.1313">
        <ele>2358.237549</ele>
        <time>2008-02-17T11:00:34.004Z</time>
      </trkpt>
      <trkpt lat="42.86416" lon="0.13141">
        <ele>2360.645508</ele>
        <time>2008-02-17T11:00:45.996Z</time>
      </trkpt>
      <trkpt lat="42.86416" lon="0.13155">
        <ele>2364.486084</ele>
        <time>2008-02-17T11:01:01.998Z</time>
      </trkpt>
      <trkpt lat="42.86417" lon="0.13168">
        <ele>2367.381592</ele>
        <time>2008-02-17T11:01:16.997Z</time>
      </trkpt>
      <trkpt lat="42.86416" lon="0.1318">
        <ele>2370.2771</ele>
        <time>2008-02-17T11:01:31.996Z</time>
      </trkpt>
      <trkpt lat="42.86418" lon="0.13191">
        <ele>2373.629883</ele>
        <time>2008-02-17T11:01:47.004Z</time>
      </trkpt>
      <trkpt lat="42.86416" lon="0.13199">
        <ele>2376.525635</ele>
        <time>2008-02-17T11:01:59.998Z</time>
      </trkpt>
      <trkpt lat="42.86411" lon="0.13205">
        <ele>2378.445801</ele>
        <time>2008-02-17T11:02:13.001Z</time>
      </trkpt>
      <trkpt lat="42.86404" lon="0.13209">
        <ele>2381.798584</ele>
        <time>2008-02-17T11:02:28.000Z</time>
      </trkpt>
      <trkpt lat="42.86395" lon="0.1321">
        <ele>2384.694092</ele>
        <time>2008-02-17T11:02:45.004Z</time>
      </trkpt>
      <trkpt lat="42.86398" lon="0.1322">
        <ele>2387.102295</ele>
        <time>2008-02-17T11:02:56.996Z</time>
      </trkpt>
      <trkpt lat="42.86398" lon="0.13224">
        <ele>2387.102295</ele>
        <time>2008-02-17T11:03:27.996Z</time>
      </trkpt>
      <trkpt lat="42.86398" lon="0.13224">
        <ele>2386.126709</ele>
        <time>2008-02-17T11:03:45.000Z</time>
      </trkpt>
      <trkpt lat="42.864" lon="0.13226">
        <ele>2385.181885</ele>
        <time>2008-02-17T11:03:50.003Z</time>
      </trkpt>
      <trkpt lat="42.86414" lon="0.13248">
        <ele>2389.967285</ele>
        <time>2008-02-17T11:04:10.998Z</time>
      </trkpt>
      <trkpt lat="42.86422" lon="0.13265">
        <ele>2393.807861</ele>
        <time>2008-02-17T11:04:28.001Z</time>
      </trkpt>
      <trkpt lat="42.86427" lon="0.13277">
        <ele>2396.703369</ele>
        <time>2008-02-17T11:04:41.998Z</time>
      </trkpt>
      <trkpt lat="42.86422" lon="0.13289">
        <ele>2402.464111</ele>
        <time>2008-02-17T11:04:57.999Z</time>
      </trkpt>
      <trkpt lat="42.86415" lon="0.13298">
        <ele>2404.384277</ele>
        <time>2008-02-17T11:05:15.003Z</time>
      </trkpt>
      <trkpt lat="42.86419" lon="0.13302">
        <ele>2405.847412</ele>
        <time>2008-02-17T11:05:38.003Z</time>
      </trkpt>
      <trkpt lat="42.86431" lon="0.13307">
        <ele>2411.608154</ele>
        <time>2008-02-17T11:05:53.002Z</time>
      </trkpt>
      <trkpt lat="42.86439" lon="0.1331">
        <ele>2413.52832</ele>
        <time>2008-02-17T11:06:05.996Z</time>
      </trkpt>
      <trkpt lat="42.86443" lon="0.13312">
        <ele>2414.503662</ele>
        <time>2008-02-17T11:06:20.002Z</time>
      </trkpt>
      <trkpt lat="42.86441" lon="0.13318">
        <ele>2415.44873</ele>
        <time>2008-02-17T11:06:37.999Z</time>
      </trkpt>
      <trkpt lat="42.86436" lon="0.13323">
        <ele>2415.936279</ele>
        <time>2008-02-17T11:06:50.000Z</time>
      </trkpt>
      <trkpt lat="42.8644" lon="0.13329">
        <ele>2421.209229</ele>
        <time>2008-02-17T11:07:31.999Z</time>
      </trkpt>
      <trkpt lat="42.8645" lon="0.13332">
        <ele>2423.617188</ele>
        <time>2008-02-17T11:07:45.002Z</time>
      </trkpt>
      <trkpt lat="42.8645" lon="0.13332">
        <ele>2424.10498</ele>
        <time>2008-02-17T11:07:46.004Z</time>
      </trkpt>
      <trkpt lat="42.86458" lon="0.1334">
        <ele>2427.945313</ele>
        <time>2008-02-17T11:08:00.001Z</time>
      </trkpt>
      <trkpt lat="42.86456" lon="0.13345">
        <ele>2428.920654</ele>
        <time>2008-02-17T11:08:17.998Z</time>
      </trkpt>
      <trkpt lat="42.86454" lon="0.13347">
        <ele>2428.920654</ele>
        <time>2008-02-17T11:08:36.004Z</time>
      </trkpt>
      <trkpt lat="42.8645" lon="0.13352">
        <ele>2428.432861</ele>
        <time>2008-02-17T11:08:59.997Z</time>
      </trkpt>
      <trkpt lat="42.86432" lon="0.13367">
        <ele>2431.29834</ele>
        <time>2008-02-17T11:09:19.999Z</time>
      </trkpt>
      <trkpt lat="42.8642" lon="0.13374">
        <ele>2435.626221</ele>
        <time>2008-02-17T11:09:36.000Z</time>
      </trkpt>
      <trkpt lat="42.86406" lon="0.13382">
        <ele>2440.442139</ele>
        <time>2008-02-17T11:09:53.997Z</time>
      </trkpt>
      <trkpt lat="42.86391" lon="0.13387">
        <ele>2446.202881</ele>
        <time>2008-02-17T11:10:12.996Z</time>
      </trkpt>
      <trkpt lat="42.86377" lon="0.13394">
        <ele>2451.506348</ele>
        <time>2008-02-17T11:10:31.996Z</time>
      </trkpt>
      <trkpt lat="42.86369" lon="0.13409">
        <ele>2456.779297</ele>
        <time>2008-02-17T11:10:51.004Z</time>
      </trkpt>
      <trkpt lat="42.86361" lon="0.13423">
        <ele>2461.595215</ele>
        <time>2008-02-17T11:11:09.001Z</time>
      </trkpt>
      <trkpt lat="42.86355" lon="0.13437">
        <ele>2465.92334</ele>
        <time>2008-02-17T11:11:25.002Z</time>
      </trkpt>
      <trkpt lat="42.86348" lon="0.13448">
        <ele>2467.84375</ele>
        <time>2008-02-17T11:11:38.999Z</time>
      </trkpt>
      <trkpt lat="42.86345" lon="0.13452">
        <ele>2468.788574</ele>
        <time>2008-02-17T11:11:45.004Z</time>
      </trkpt>
      <trkpt lat="42.86335" lon="0.1346">
        <ele>2469.276123</ele>
        <time>2008-02-17T11:11:59.001Z</time>
      </trkpt>
      <trkpt lat="42.86325" lon="0.13468">
        <ele>2474.092041</ele>
        <time>2008-02-17T11:12:14.000Z</time>
      </trkpt>
      <trkpt lat="42.86314" lon="0.13476">
        <ele>2476.012207</ele>
        <time>2008-02-17T11:12:30.001Z</time>
      </trkpt>
      <trkpt lat="42.86307" lon="0.1348">
        <ele>2477.932617</ele>
        <time>2008-02-17T11:12:41.000Z</time>
      </trkpt>
      <trkpt lat="42.86299" lon="0.13484">
        <ele>2482.260742</ele>
        <time>2008-02-17T11:12:51.998Z</time>
      </trkpt>
      <trkpt lat="42.86289" lon="0.13485">
        <ele>2484.668701</ele>
        <time>2008-02-17T11:13:06.004Z</time>
      </trkpt>
      <trkpt lat="42.8628" lon="0.13487">
        <ele>2486.588867</ele>
        <time>2008-02-17T11:13:17.003Z</time>
      </trkpt>
      <trkpt lat="42.86271" lon="0.13491">
        <ele>2489.484619</ele>
        <time>2008-02-17T11:13:30.999Z</time>
      </trkpt>
      <trkpt lat="42.86264" lon="0.13492">
        <ele>2489.94165</ele>
        <time>2008-02-17T11:13:41.998Z</time>
      </trkpt>
      <trkpt lat="42.86256" lon="0.13495">
        <ele>2493.782227</ele>
        <time>2008-02-17T11:13:55.001Z</time>
      </trkpt>
      <trkpt lat="42.8625" lon="0.13496">
        <ele>2495.73291</ele>
        <time>2008-02-17T11:14:04.004Z</time>
      </trkpt>
      <trkpt lat="42.86238" lon="0.13504">
        <ele>2497.65332</ele>
        <time>2008-02-17T11:14:19.997Z</time>
      </trkpt>
      <trkpt lat="42.86236" lon="0.13506">
        <ele>2498.110352</ele>
        <time>2008-02-17T11:14:39.998Z</time>
      </trkpt>
      <trkpt lat="42.86225" lon="0.1351">
        <ele>2500.061035</ele>
        <time>2008-02-17T11:15:14.999Z</time>
      </trkpt>
      <trkpt lat="42.86224" lon="0.1351">
        <ele>2499.573486</ele>
        <time>2008-02-17T11:15:43.001Z</time>
      </trkpt>
      <trkpt lat="42.86219" lon="0.13513">
        <ele>2501.493652</ele>
        <time>2008-02-17T11:17:11.000Z</time>
      </trkpt>
      <trkpt lat="42.8622" lon="0.13513">
        <ele>2506.309326</ele>
        <time>2008-02-17T11:18:29.002Z</time>
      </trkpt>
      <trkpt lat="42.86202" lon="0.1352">
        <ele>2506.309326</ele>
        <time>2008-02-17T11:18:49.003Z</time>
      </trkpt>
      <trkpt lat="42.86194" lon="0.13526">
        <ele>2509.174561</ele>
        <time>2008-02-17T11:19:04.996Z</time>
      </trkpt>
      <trkpt lat="42.86185" lon="0.13533">
        <ele>2511.094727</ele>
        <time>2008-02-17T11:19:20.004Z</time>
      </trkpt>
      <trkpt lat="42.86174" lon="0.1354">
        <ele>2513.014893</ele>
        <time>2008-02-17T11:19:32.998Z</time>
      </trkpt>
      <trkpt lat="42.86162" lon="0.13548">
        <ele>2512.557861</ele>
        <time>2008-02-17T11:19:48.999Z</time>
      </trkpt>
      <trkpt lat="42.86153" lon="0.13554">
        <ele>2516.398438</ele>
        <time>2008-02-17T11:20:02.003Z</time>
      </trkpt>
      <trkpt lat="42.86144" lon="0.13558">
        <ele>2520.23877</ele>
        <time>2008-02-17T11:20:15.999Z</time>
      </trkpt>
      <trkpt lat="42.86134" lon="0.13563">
        <ele>2524.567139</ele>
        <time>2008-02-17T11:20:30.998Z</time>
      </trkpt>
      <trkpt lat="42.86124" lon="0.13569">
        <ele>2527.431885</ele>
        <time>2008-02-17T11:20:45.997Z</time>
      </trkpt>
      <trkpt lat="42.86114" lon="0.13578">
        <ele>2530.81543</ele>
        <time>2008-02-17T11:21:03.001Z</time>
      </trkpt>
      <trkpt lat="42.86103" lon="0.13587">
        <ele>2533.68042</ele>
        <time>2008-02-17T11:21:22.000Z</time>
      </trkpt>
      <trkpt lat="42.86094" lon="0.13595">
        <ele>2536.088379</ele>
        <time>2008-02-17T11:21:39.004Z</time>
      </trkpt>
      <trkpt lat="42.86085" lon="0.13604">
        <ele>2538.008545</ele>
        <time>2008-02-17T11:21:54.996Z</time>
      </trkpt>
      <trkpt lat="42.86074" lon="0.13613">
        <ele>2541.39209</ele>
        <time>2008-02-17T11:22:12.000Z</time>
      </trkpt>
      <trkpt lat="42.8606" lon="0.13621">
        <ele>2543.799805</ele>
        <time>2008-02-17T11:22:32.002Z</time>
      </trkpt>
      <trkpt lat="42.86046" lon="0.13625">
        <ele>2548.097656</ele>
        <time>2008-02-17T11:22:49.999Z</time>
      </trkpt>
      <trkpt lat="42.86033" lon="0.13625">
        <ele>2550.993164</ele>
        <time>2008-02-17T11:23:07.002Z</time>
      </trkpt>
      <trkpt lat="42.86023" lon="0.13628">
        <ele>2554.345947</ele>
        <time>2008-02-17T11:23:23.004Z</time>
      </trkpt>
      <trkpt lat="42.86013" lon="0.1363">
        <ele>2557.241699</ele>
        <time>2008-02-17T11:23:38.996Z</time>
      </trkpt>
      <trkpt lat="42.86005" lon="0.13632">
        <ele>2559.161865</ele>
        <time>2008-02-17T11:23:57.002Z</time>
      </trkpt>
      <trkpt lat="42.86005" lon="0.13631">
        <ele>2557.729248</ele>
        <time>2008-02-17T11:24:21.004Z</time>
      </trkpt>
      <trkpt lat="42.86" lon="0.13634">
        <ele>2559.649414</ele>
        <time>2008-02-17T11:24:35.001Z</time>
      </trkpt>
      <trkpt lat="42.85986" lon="0.1364">
        <ele>2562.544922</ele>
        <time>2008-02-17T11:24:52.004Z</time>
      </trkpt>
      <trkpt lat="42.85985" lon="0.1364">
        <ele>2563.002197</ele>
        <time>2008-02-17T11:24:52.998Z</time>
      </trkpt>
      <trkpt lat="42.85972" lon="0.13648">
        <ele>2565.897705</ele>
        <time>2008-02-17T11:25:10.001Z</time>
      </trkpt>
      <trkpt lat="42.85957" lon="0.13656">
        <ele>2568.305908</ele>
        <time>2008-02-17T11:25:27.998Z</time>
      </trkpt>
      <trkpt lat="42.85945" lon="0.13662">
        <ele>2571.170654</ele>
        <time>2008-02-17T11:25:44.000Z</time>
      </trkpt>
      <trkpt lat="42.85934" lon="0.13671">
        <ele>2573.578857</ele>
        <time>2008-02-17T11:26:00.001Z</time>
      </trkpt>
      <trkpt lat="42.85922" lon="0.13683">
        <ele>2575.986816</ele>
        <time>2008-02-17T11:26:19.000Z</time>
      </trkpt>
      <trkpt lat="42.85914" lon="0.13692">
        <ele>2578.882324</ele>
        <time>2008-02-17T11:26:33.999Z</time>
      </trkpt>
      <trkpt lat="42.85914" lon="0.13693">
        <ele>2579.3396</ele>
        <time>2008-02-17T11:26:51.003Z</time>
      </trkpt>
      <trkpt lat="42.85913" lon="0.13696">
        <ele>2580.802734</ele>
        <time>2008-02-17T11:27:37.996Z</time>
      </trkpt>
      <trkpt lat="42.85914" lon="0.13697">
        <ele>2580.802734</ele>
        <time>2008-02-17T11:28:16.003Z</time>
      </trkpt>
      <trkpt lat="42.85913" lon="0.13697">
        <ele>2580.314697</ele>
        <time>2008-02-17T11:28:58.002Z</time>
      </trkpt>
      <trkpt lat="42.85912" lon="0.13696">
        <ele>2579.3396</ele>
        <time>2008-02-17T11:29:20.000Z</time>
      </trkpt>
      <trkpt lat="42.85913" lon="0.13697">
        <ele>2579.827148</ele>
        <time>2008-02-17T11:30:05.999Z</time>
      </trkpt>
      <trkpt lat="42.85912" lon="0.13697">
        <ele>2579.827148</ele>
        <time>2008-02-17T11:30:31.003Z</time>
      </trkpt>
      <trkpt lat="42.85912" lon="0.13696">
        <ele>2578.882324</ele>
        <time>2008-02-17T11:30:55.999Z</time>
      </trkpt>
      <trkpt lat="42.85912" lon="0.13695">
        <ele>2578.394531</ele>
        <time>2008-02-17T11:31:22.999Z</time>
      </trkpt>
      <trkpt lat="42.85911" lon="0.13695">
        <ele>2578.882324</ele>
        <time>2008-02-17T11:31:45.998Z</time>
      </trkpt>
      <trkpt lat="42.85909" lon="0.13691">
        <ele>2578.394531</ele>
        <time>2008-02-17T11:31:57.999Z</time>
      </trkpt>
      <trkpt lat="42.85901" lon="0.13693">
        <ele>2581.290283</ele>
        <time>2008-02-17T11:32:12.998Z</time>
      </trkpt>
      <trkpt lat="42.85898" lon="0.13695">
        <ele>2583.210449</ele>
        <time>2008-02-17T11:32:33.000Z</time>
      </trkpt>
      <trkpt lat="42.85893" lon="0.13694">
        <ele>2585.130859</ele>
        <time>2008-02-17T11:32:58.998Z</time>
      </trkpt>
      <trkpt lat="42.85888" lon="0.13691">
        <ele>2589.45874</ele>
        <time>2008-02-17T11:33:16.001Z</time>
      </trkpt>
      <trkpt lat="42.85884" lon="0.13689">
        <ele>2591.866699</ele>
        <time>2008-02-17T11:33:32.003Z</time>
      </trkpt>
      <trkpt lat="42.8588" lon="0.13689">
        <ele>2594.244141</ele>
        <time>2008-02-17T11:33:48.004Z</time>
      </trkpt>
      <trkpt lat="42.85878" lon="0.13688">
        <ele>2595.707275</ele>
        <time>2008-02-17T11:34:03.996Z</time>
      </trkpt>
      <trkpt lat="42.85876" lon="0.13681">
        <ele>2598.57251</ele>
        <time>2008-02-17T11:34:23.998Z</time>
      </trkpt>
      <trkpt lat="42.85877" lon="0.13674">
        <ele>2600.492676</ele>
        <time>2008-02-17T11:34:38.997Z</time>
      </trkpt>
      <trkpt lat="42.85874" lon="0.13668">
        <ele>2603.875977</ele>
        <time>2008-02-17T11:34:53.996Z</time>
      </trkpt>
      <trkpt lat="42.85873" lon="0.13663">
        <ele>2606.283691</ele>
        <time>2008-02-17T11:35:09.997Z</time>
      </trkpt>
      <trkpt lat="42.85873" lon="0.13662">
        <ele>2607.716309</ele>
        <time>2008-02-17T11:35:28.003Z</time>
      </trkpt>
      <trkpt lat="42.85868" lon="0.13662">
        <ele>2610.124512</ele>
        <time>2008-02-17T11:35:44.998Z</time>
      </trkpt>
      <trkpt lat="42.85867" lon="0.13662">
        <ele>2610.612061</ele>
        <time>2008-02-17T11:36:07.004Z</time>
      </trkpt>
      <trkpt lat="42.85865" lon="0.13661">
        <ele>2612.532227</ele>
        <time>2008-02-17T11:36:25.001Z</time>
      </trkpt>
      <trkpt lat="42.85861" lon="0.13659">
        <ele>2615.397461</ele>
        <time>2008-02-17T11:36:41.003Z</time>
      </trkpt>
      <trkpt lat="42.85857" lon="0.1366">
        <ele>2617.805176</ele>
        <time>2008-02-17T11:36:56.002Z</time>
      </trkpt>
      <trkpt lat="42.85851" lon="0.13661">
        <ele>2620.213135</ele>
        <time>2008-02-17T11:37:12.003Z</time>
      </trkpt>
      <trkpt lat="42.8585" lon="0.13661">
        <ele>2621.645752</ele>
        <time>2008-02-17T11:37:28.004Z</time>
      </trkpt>
      <trkpt lat="42.85846" lon="0.13658">
        <ele>2623.565918</ele>
        <time>2008-02-17T11:37:40.999Z</time>
      </trkpt>
      <trkpt lat="42.85845" lon="0.13655">
        <ele>2625.486084</ele>
        <time>2008-02-17T11:37:58.002Z</time>
      </trkpt>
      <trkpt lat="42.85843" lon="0.13652">
        <ele>2627.894287</ele>
        <time>2008-02-17T11:38:15.999Z</time>
      </trkpt>
      <trkpt lat="42.85838" lon="0.13653">
        <ele>2631.277344</ele>
        <time>2008-02-17T11:38:30.998Z</time>
      </trkpt>
      <trkpt lat="42.85833" lon="0.13654">
        <ele>2634.142578</ele>
        <time>2008-02-17T11:38:42.999Z</time>
      </trkpt>
      <trkpt lat="42.85826" lon="0.13653">
        <ele>2637.525879</ele>
        <time>2008-02-17T11:38:57.998Z</time>
      </trkpt>
      <trkpt lat="42.85822" lon="0.13651">
        <ele>2640.391113</ele>
        <time>2008-02-17T11:39:16.004Z</time>
      </trkpt>
      <trkpt lat="42.8582" lon="0.13644">
        <ele>2642.311279</ele>
        <time>2008-02-17T11:39:31.003Z</time>
      </trkpt>
      <trkpt lat="42.85819" lon="0.13635">
        <ele>2644.719238</ele>
        <time>2008-02-17T11:39:46.002Z</time>
      </trkpt>
      <trkpt lat="42.85814" lon="0.13635">
        <ele>2648.55957</ele>
        <time>2008-02-17T11:39:58.003Z</time>
      </trkpt>
      <trkpt lat="42.85808" lon="0.13636">
        <ele>2651.455078</ele>
        <time>2008-02-17T11:40:13.002Z</time>
      </trkpt>
      <trkpt lat="42.85805" lon="0.13639">
        <ele>2653.863281</ele>
        <time>2008-02-17T11:40:28.001Z</time>
      </trkpt>
      <trkpt lat="42.85797" lon="0.13642">
        <ele>2656.728271</ele>
        <time>2008-02-17T11:40:44.996Z</time>
      </trkpt>
      <trkpt lat="42.85795" lon="0.13647">
        <ele>2658.648438</ele>
        <time>2008-02-17T11:41:00.004Z</time>
      </trkpt>
      <trkpt lat="42.85793" lon="0.13651">
        <ele>2659.13623</ele>
        <time>2008-02-17T11:41:16.999Z</time>
      </trkpt>
      <trkpt lat="42.85789" lon="0.13653">
        <ele>2659.13623</ele>
        <time>2008-02-17T11:41:30.002Z</time>
      </trkpt>
      <trkpt lat="42.85788" lon="0.13654">
        <ele>2659.13623</ele>
        <time>2008-02-17T11:41:54.997Z</time>
      </trkpt>
      <trkpt lat="42.85788" lon="0.13659">
        <ele>2660.599121</ele>
        <time>2008-02-17T11:42:21.997Z</time>
      </trkpt>
      <trkpt lat="42.85787" lon="0.13665">
        <ele>2660.599121</ele>
        <time>2008-02-17T11:42:36.003Z</time>
      </trkpt>
      <trkpt lat="42.85788" lon="0.13665">
        <ele>2663.951904</ele>
        <time>2008-02-17T11:43:31.999Z</time>
      </trkpt>
      <trkpt lat="42.85789" lon="0.13665">
        <ele>2663.951904</ele>
        <time>2008-02-17T11:44:05.004Z</time>
      </trkpt>
      <trkpt lat="42.85789" lon="0.13665">
        <ele>2663.464355</ele>
        <time>2008-02-17T11:44:21.998Z</time>
      </trkpt>
      <trkpt lat="42.85789" lon="0.13665">
        <ele>2662.031738</ele>
        <time>2008-02-17T11:44:42.000Z</time>
      </trkpt>
      <trkpt lat="42.85788" lon="0.13665">
        <ele>2659.623779</ele>
        <time>2008-02-17T11:45:46.999Z</time>
      </trkpt>
      <trkpt lat="42.85788" lon="0.13667">
        <ele>2660.599121</ele>
        <time>2008-02-17T11:46:20.004Z</time>
      </trkpt>
      <trkpt lat="42.85786" lon="0.13667">
        <ele>2658.191162</ele>
        <time>2008-02-17T11:46:35.996Z</time>
      </trkpt>
      <trkpt lat="42.85787" lon="0.13666">
        <ele>2657.216064</ele>
        <time>2008-02-17T11:46:54.002Z</time>
      </trkpt>
      <trkpt lat="42.85787" lon="0.13666">
        <ele>2657.216064</ele>
        <time>2008-02-17T11:47:38.999Z</time>
      </trkpt>
      <trkpt lat="42.85784" lon="0.13666">
        <ele>2652.887939</ele>
        <time>2008-02-17T11:48:14.000Z</time>
      </trkpt>
      <trkpt lat="42.85785" lon="0.13666">
        <ele>2654.35083</ele>
        <time>2008-02-17T11:48:50.996Z</time>
      </trkpt>
      <trkpt lat="42.85791" lon="0.13667">
        <ele>2663.951904</ele>
        <time>2008-02-17T11:49:37.004Z</time>
      </trkpt>
      <trkpt lat="42.85794" lon="0.13668">
        <ele>2669.712891</ele>
        <time>2008-02-17T11:50:15.996Z</time>
      </trkpt>
      <trkpt lat="42.85789" lon="0.13667">
        <ele>2661.543945</ele>
        <time>2008-02-17T11:50:37.000Z</time>
      </trkpt>
      <trkpt lat="42.85793" lon="0.13667">
        <ele>2667.79248</ele>
        <time>2008-02-17T11:51:09.996Z</time>
      </trkpt>
      <trkpt lat="42.85789" lon="0.13666">
        <ele>2661.056396</ele>
        <time>2008-02-17T11:51:32.996Z</time>
      </trkpt>
      <trkpt lat="42.85786" lon="0.13666">
        <ele>2657.216064</ele>
        <time>2008-02-17T11:52:50.998Z</time>
      </trkpt>
      <trkpt lat="42.85786" lon="0.13666">
        <ele>2657.216064</ele>
        <time>2008-02-17T11:53:43.996Z</time>
      </trkpt>
      <trkpt lat="42.85787" lon="0.13667">
        <ele>2657.703613</ele>
        <time>2008-02-17T12:02:36.004Z</time>
      </trkpt>
    </trkseg>
  </trk>
</gpx>